BAW2202 MMUN-EGKK
Flight info
| Callsign | BAW2202 |
|---|---|
| Flight time | N/A |
| Altitude | 37000 |
| Route | NUDAL1A NUDAL UV106 PODON UG765 MAXIM DCT VKZ DCT NUCAR A699 SUMRS/M083F370 M204 LUNKR/M083F390 M204 SOORY DCT 43N050W 46N040W 49N030W 50N020W DCT SOMAX DCT ATSUR/M084F410 DCT GAPLI/N0481F410 DCT SIDDI DCT DAWLY DCT ELRIP DCT OTMET |
| Aircraft | B772/H-SDE2E3FGHIJ5LORVWXY/LB1D1 |
Departure
| Time | 2026-04-30 07:50 |
|---|---|
| Airport | Cancún International Airport (MMUN) |
Arrival
| Time | N/A |
|---|---|
| Airport | London Gatwick Airport (EGKK) |
| Time | Latitude | Longitude | Altitude | Speed | Heading |
|---|---|---|---|---|---|
| 2026-04-30 07:34 | 21.03630 | -86.86749 | 33 ft | 0 kts | 304° |
| 2026-04-30 07:36 | 21.03629 | -86.86748 | 33 ft | 2 kts | 304° |
| 2026-04-30 07:36 | 21.03615 | -86.86725 | 33 ft | 4 kts | 304° |
| 2026-04-30 07:36 | 21.03601 | -86.86701 | 30 ft | 4 kts | 285° |
| 2026-04-30 07:37 | 21.03600 | -86.86674 | 28 ft | 4 kts | 248° |
| 2026-04-30 07:37 | 21.03613 | -86.86654 | 31 ft | 1 kts | 214° |
| 2026-04-30 07:37 | 21.03614 | -86.86653 | 31 ft | 0 kts | 213° |
| 2026-04-30 07:40 | 21.03593 | -86.86668 | 33 ft | 5 kts | 213° |
| 2026-04-30 07:40 | 21.03562 | -86.86690 | 33 ft | 5 kts | 213° |
| 2026-04-30 07:41 | 21.03531 | -86.86712 | 33 ft | 5 kts | 213° |
| 2026-04-30 07:41 | 21.03509 | -86.86727 | 33 ft | 5 kts | 213° |
| 2026-04-30 07:41 | 21.03479 | -86.86749 | 33 ft | 5 kts | 213° |
| 2026-04-30 07:41 | 21.03448 | -86.86770 | 33 ft | 5 kts | 213° |
| 2026-04-30 07:42 | 21.03417 | -86.86792 | 34 ft | 5 kts | 213° |
| 2026-04-30 07:42 | 21.03386 | -86.86813 | 34 ft | 5 kts | 213° |
| 2026-04-30 07:42 | 21.03354 | -86.86840 | 34 ft | 9 kts | 232° |
| 2026-04-30 07:42 | 21.03373 | -86.86932 | 34 ft | 16 kts | 302° |
| 2026-04-30 07:43 | 21.03433 | -86.87033 | 35 ft | 16 kts | 302° |
| 2026-04-30 07:43 | 21.03494 | -86.87132 | 35 ft | 16 kts | 304° |
| 2026-04-30 07:43 | 21.03557 | -86.87231 | 35 ft | 16 kts | 304° |
| 2026-04-30 07:43 | 21.03620 | -86.87330 | 35 ft | 16 kts | 304° |
| 2026-04-30 07:44 | 21.03682 | -86.87429 | 35 ft | 16 kts | 304° |
| 2026-04-30 07:44 | 21.03745 | -86.87528 | 35 ft | 16 kts | 304° |
| 2026-04-30 07:44 | 21.03807 | -86.87627 | 35 ft | 16 kts | 303° |
| 2026-04-30 07:44 | 21.03868 | -86.87725 | 35 ft | 16 kts | 303° |
| 2026-04-30 07:45 | 21.03930 | -86.87825 | 35 ft | 16 kts | 303° |
| 2026-04-30 07:45 | 21.03991 | -86.87924 | 34 ft | 16 kts | 303° |
| 2026-04-30 07:45 | 21.04053 | -86.88023 | 35 ft | 16 kts | 303° |
| 2026-04-30 07:45 | 21.04115 | -86.88123 | 34 ft | 16 kts | 303° |
| 2026-04-30 07:46 | 21.04177 | -86.88222 | 35 ft | 16 kts | 303° |
| 2026-04-30 07:46 | 21.04238 | -86.88321 | 35 ft | 16 kts | 303° |
| 2026-04-30 07:46 | 21.04301 | -86.88420 | 35 ft | 16 kts | 305° |
| 2026-04-30 07:46 | 21.04365 | -86.88518 | 35 ft | 16 kts | 305° |
| 2026-04-30 07:47 | 21.04429 | -86.88615 | 35 ft | 16 kts | 305° |
| 2026-04-30 07:47 | 21.04493 | -86.88713 | 35 ft | 16 kts | 305° |
| 2026-04-30 07:47 | 21.04552 | -86.88814 | 35 ft | 16 kts | 304° |
| 2026-04-30 07:47 | 21.04615 | -86.88913 | 34 ft | 16 kts | 304° |
| 2026-04-30 07:48 | 21.04631 | -86.89007 | 35 ft | 13 kts | 250° |
| 2026-04-30 07:48 | 21.04557 | -86.89062 | 36 ft | 13 kts | 206° |
| 2026-04-30 07:48 | 21.04484 | -86.89018 | 35 ft | 13 kts | 124° |
| 2026-04-30 07:48 | 21.04471 | -86.88996 | 37 ft | 0 kts | 117° |
| 2026-04-30 07:49 | 21.04461 | -86.88980 | 37 ft | 12 kts | 123° |
| 2026-04-30 07:49 | 21.04300 | -86.88730 | 39 ft | 76 kts | 124° |
| 2026-04-30 07:49 | 21.03888 | -86.88051 | 38 ft | 140 kts | 124° |
| 2026-04-30 07:50 | 21.03249 | -86.87053 | 277 ft | 173 kts | 124° |
| 2026-04-30 07:50 | 21.02564 | -86.85998 | 1044 ft | 167 kts | 125° |
| 2026-04-30 07:50 | 21.01981 | -86.84987 | 1910 ft | 162 kts | 120° |
| 2026-04-30 07:50 | 21.01404 | -86.83856 | 2186 ft | 186 kts | 119° |
| 2026-04-30 07:51 | 21.00746 | -86.82561 | 2406 ft | 209 kts | 119° |
| 2026-04-30 07:51 | 21.00028 | -86.81154 | 2804 ft | 221 kts | 119° |
| 2026-04-30 07:51 | 20.99254 | -86.79641 | 3106 ft | 240 kts | 119° |
| 2026-04-30 07:51 | 20.98435 | -86.78036 | 3608 ft | 250 kts | 118° |
| 2026-04-30 07:52 | 20.97596 | -86.76384 | 4160 ft | 259 kts | 118° |
| 2026-04-30 07:52 | 20.96757 | -86.74663 | 4771 ft | 261 kts | 117° |
| 2026-04-30 07:52 | 20.96046 | -86.72879 | 4987 ft | 264 kts | 101° |
| 2026-04-30 07:52 | 20.96149 | -86.70921 | 5365 ft | 267 kts | 79° |
| 2026-04-30 07:53 | 20.96540 | -86.68969 | 5959 ft | 269 kts | 81° |
| 2026-04-30 07:53 | 20.96905 | -86.67003 | 6602 ft | 270 kts | 80° |
| 2026-04-30 07:53 | 20.97275 | -86.65018 | 7173 ft | 273 kts | 80° |
| 2026-04-30 07:53 | 20.97643 | -86.63052 | 7792 ft | 273 kts | 79° |
| 2026-04-30 07:54 | 20.98018 | -86.61050 | 8341 ft | 276 kts | 79° |
| 2026-04-30 07:54 | 20.98432 | -86.59002 | 8892 ft | 278 kts | 75° |
| 2026-04-30 07:54 | 20.99037 | -86.57058 | 9464 ft | 280 kts | 70° |
| 2026-04-30 07:54 | 20.99738 | -86.55106 | 9992 ft | 281 kts | 69° |
| 2026-04-30 07:55 | 21.00461 | -86.53123 | 10280 ft | 294 kts | 69° |
| 2026-04-30 07:55 | 21.01222 | -86.51021 | 10402 ft | 311 kts | 69° |
| 2026-04-30 07:55 | 21.02018 | -86.48798 | 10521 ft | 329 kts | 69° |
| 2026-04-30 07:55 | 21.02854 | -86.46441 | 10657 ft | 349 kts | 69° |
| 2026-04-30 07:56 | 21.03730 | -86.43948 | 10943 ft | 364 kts | 69° |
| 2026-04-30 07:56 | 21.04628 | -86.41379 | 11484 ft | 373 kts | 69° |
| 2026-04-30 07:56 | 21.05540 | -86.38757 | 12184 ft | 377 kts | 69° |
| 2026-04-30 07:56 | 21.06458 | -86.36115 | 12938 ft | 380 kts | 69° |
| 2026-04-30 07:57 | 21.07384 | -86.33443 | 13616 ft | 384 kts | 69° |
| 2026-04-30 07:57 | 21.08306 | -86.30780 | 14210 ft | 389 kts | 69° |
| 2026-04-30 07:57 | 21.09251 | -86.28050 | 14791 ft | 393 kts | 69° |
| 2026-04-30 07:57 | 21.10205 | -86.25290 | 15360 ft | 397 kts | 68° |
| 2026-04-30 07:58 | 21.11168 | -86.22503 | 15898 ft | 401 kts | 68° |
| 2026-04-30 07:58 | 21.12141 | -86.19685 | 16447 ft | 405 kts | 68° |
| 2026-04-30 07:58 | 21.13122 | -86.16842 | 17004 ft | 409 kts | 68° |
| 2026-04-30 07:58 | 21.14111 | -86.13975 | 17558 ft | 412 kts | 68° |
| 2026-04-30 07:59 | 21.15111 | -86.11075 | 18096 ft | 416 kts | 68° |
| 2026-04-30 07:59 | 21.16117 | -86.08153 | 18570 ft | 419 kts | 68° |
| 2026-04-30 07:59 | 21.17130 | -86.05211 | 19004 ft | 423 kts | 68° |
| 2026-04-30 08:00 | 21.19177 | -85.99261 | 19906 ft | 428 kts | 68° |
| 2026-04-30 08:00 | 21.20067 | -85.96199 | 20294 ft | 433 kts | 74° |
| 2026-04-30 08:00 | 21.20689 | -85.93064 | 20691 ft | 437 kts | 77° |
| 2026-04-30 08:00 | 21.21225 | -85.89842 | 21105 ft | 440 kts | 77° |
| 2026-04-30 08:01 | 21.21759 | -85.86592 | 21520 ft | 443 kts | 77° |
| 2026-04-30 08:01 | 21.22323 | -85.83329 | 21911 ft | 446 kts | 76° |
| 2026-04-30 08:01 | 21.22918 | -85.80057 | 22315 ft | 449 kts | 76° |
| 2026-04-30 08:01 | 21.23534 | -85.76766 | 22696 ft | 452 kts | 76° |
| 2026-04-30 08:02 | 21.24794 | -85.70118 | 23447 ft | 457 kts | 76° |
| 2026-04-30 08:02 | 21.25418 | -85.66809 | 23768 ft | 460 kts | 76° |
| 2026-04-30 08:03 | 21.27786 | -85.60589 | 24125 ft | 454 kts | 47° |
| 2026-04-30 08:03 | 21.32408 | -85.56062 | 24623 ft | 453 kts | 39° |
| 2026-04-30 08:03 | 21.34777 | -85.53814 | 24946 ft | 455 kts | 39° |
| 2026-04-30 08:04 | 21.37132 | -85.51548 | 25304 ft | 455 kts | 39° |
| 2026-04-30 08:04 | 21.39488 | -85.49264 | 25650 ft | 457 kts | 39° |
| 2026-04-30 08:04 | 21.41851 | -85.46962 | 25964 ft | 459 kts | 39° |
| 2026-04-30 08:04 | 21.44219 | -85.44651 | 26284 ft | 461 kts | 39° |
| 2026-04-30 08:05 | 21.46596 | -85.42328 | 26613 ft | 463 kts | 39° |
| 2026-04-30 08:05 | 21.48978 | -85.39999 | 26968 ft | 464 kts | 39° |
| 2026-04-30 08:05 | 21.51373 | -85.37656 | 27316 ft | 465 kts | 39° |
| 2026-04-30 08:05 | 21.53773 | -85.35309 | 27617 ft | 467 kts | 39° |
| 2026-04-30 08:06 | 21.56156 | -85.32977 | 27911 ft | 470 kts | 39° |
| 2026-04-30 08:06 | 21.58577 | -85.30608 | 28193 ft | 472 kts | 39° |
| 2026-04-30 08:06 | 21.61010 | -85.28226 | 28462 ft | 474 kts | 39° |
| 2026-04-30 08:06 | 21.63456 | -85.25830 | 28741 ft | 476 kts | 39° |
| 2026-04-30 08:07 | 21.65904 | -85.23430 | 29011 ft | 477 kts | 39° |
| 2026-04-30 08:07 | 21.68368 | -85.21014 | 29261 ft | 479 kts | 39° |
| 2026-04-30 08:07 | 21.70834 | -85.18594 | 29502 ft | 481 kts | 39° |
| 2026-04-30 08:07 | 21.73315 | -85.16159 | 29747 ft | 483 kts | 39° |
| 2026-04-30 08:08 | 21.74961 | -85.14542 | 29871 ft | 484 kts | 39° |
| 2026-04-30 08:08 | 21.77448 | -85.12099 | 30139 ft | 484 kts | 39° |
| 2026-04-30 08:08 | 21.79932 | -85.09656 | 30442 ft | 483 kts | 39° |
| 2026-04-30 08:08 | 21.83215 | -85.06428 | 30840 ft | 482 kts | 39° |
| 2026-04-30 08:09 | 21.84884 | -85.04785 | 31033 ft | 482 kts | 39° |
| 2026-04-30 08:09 | 21.88154 | -85.01565 | 31450 ft | 481 kts | 39° |
| 2026-04-30 08:09 | 21.90618 | -84.99138 | 31743 ft | 480 kts | 39° |
| 2026-04-30 08:09 | 21.92285 | -84.97497 | 31935 ft | 480 kts | 39° |
| 2026-04-30 08:10 | 21.94749 | -84.95068 | 32208 ft | 480 kts | 39° |
| 2026-04-30 08:10 | 21.97214 | -84.92637 | 32490 ft | 480 kts | 39° |
| 2026-04-30 08:10 | 21.99648 | -84.90236 | 32775 ft | 480 kts | 39° |
| 2026-04-30 08:10 | 22.02110 | -84.87805 | 33085 ft | 480 kts | 38° |
| 2026-04-30 08:11 | 22.04601 | -84.85345 | 33356 ft | 479 kts | 38° |
| 2026-04-30 08:11 | 22.07023 | -84.82950 | 33680 ft | 478 kts | 38° |
| 2026-04-30 08:11 | 22.09478 | -84.80522 | 34007 ft | 477 kts | 38° |
| 2026-04-30 08:11 | 22.11936 | -84.78092 | 34243 ft | 478 kts | 38° |
| 2026-04-30 08:12 | 22.14381 | -84.75672 | 34455 ft | 478 kts | 38° |
| 2026-04-30 08:12 | 22.16838 | -84.73240 | 34690 ft | 478 kts | 38° |
| 2026-04-30 08:12 | 22.19286 | -84.70814 | 34935 ft | 478 kts | 38° |
| 2026-04-30 08:12 | 22.21738 | -84.68385 | 35178 ft | 478 kts | 38° |
| 2026-04-30 08:13 | 22.24187 | -84.65956 | 35405 ft | 478 kts | 39° |
| 2026-04-30 08:13 | 22.29079 | -84.61104 | 35640 ft | 483 kts | 39° |
| 2026-04-30 08:13 | 22.31563 | -84.58636 | 35892 ft | 483 kts | 39° |
| 2026-04-30 08:14 | 22.34034 | -84.56180 | 36150 ft | 482 kts | 39° |
| 2026-04-30 08:14 | 22.36499 | -84.53728 | 36395 ft | 482 kts | 39° |
| 2026-04-30 08:14 | 22.38964 | -84.51276 | 36634 ft | 481 kts | 39° |
| 2026-04-30 08:14 | 22.41423 | -84.48829 | 36845 ft | 481 kts | 39° |
| 2026-04-30 08:15 | 22.43893 | -84.46371 | 36895 ft | 484 kts | 39° |
| 2026-04-30 08:15 | 22.48865 | -84.41418 | 36946 ft | 487 kts | 39° |
| 2026-04-30 08:16 | 22.53825 | -84.36467 | 36943 ft | 481 kts | 39° |
| 2026-04-30 08:16 | 22.58734 | -84.31565 | 36948 ft | 478 kts | 39° |
| 2026-04-30 08:17 | 22.63613 | -84.26690 | 36950 ft | 477 kts | 39° |
| 2026-04-30 08:17 | 22.68117 | -84.21426 | 36961 ft | 482 kts | 47° |
| 2026-04-30 08:18 | 22.72345 | -84.15763 | 36960 ft | 484 kts | 47° |
| 2026-04-30 08:18 | 22.76669 | -84.10162 | 36953 ft | 485 kts | 45° |
| 2026-04-30 08:19 | 22.81091 | -84.04605 | 36941 ft | 487 kts | 45° |
| 2026-04-30 08:19 | 22.85525 | -83.99035 | 36938 ft | 488 kts | 45° |
| 2026-04-30 08:20 | 22.89961 | -83.93431 | 36937 ft | 489 kts | 45° |
| 2026-04-30 08:20 | 22.94389 | -83.87816 | 36951 ft | 490 kts | 46° |
| 2026-04-30 08:21 | 22.98791 | -83.82228 | 36954 ft | 490 kts | 46° |
| 2026-04-30 08:21 | 23.03218 | -83.76601 | 36945 ft | 489 kts | 45° |
| 2026-04-30 08:22 | 23.07634 | -83.70985 | 36946 ft | 488 kts | 45° |
| 2026-04-30 08:22 | 23.12044 | -83.65370 | 36946 ft | 487 kts | 45° |
| 2026-04-30 08:23 | 23.16442 | -83.59764 | 36947 ft | 486 kts | 45° |
| 2026-04-30 08:23 | 23.20829 | -83.54166 | 36946 ft | 485 kts | 45° |
| 2026-04-30 08:24 | 23.25176 | -83.48613 | 36945 ft | 485 kts | 46° |
| 2026-04-30 08:24 | 23.29561 | -83.43004 | 36962 ft | 486 kts | 45° |
| 2026-04-30 08:25 | 23.33939 | -83.37399 | 36959 ft | 486 kts | 45° |
| 2026-04-30 08:25 | 23.38320 | -83.31783 | 36953 ft | 487 kts | 45° |
| 2026-04-30 08:26 | 23.42704 | -83.26157 | 36951 ft | 487 kts | 45° |
| 2026-04-30 08:26 | 23.47095 | -83.20515 | 36953 ft | 487 kts | 46° |
| 2026-04-30 08:27 | 23.51452 | -83.14911 | 36960 ft | 488 kts | 46° |
| 2026-04-30 08:27 | 23.55838 | -83.09261 | 36949 ft | 488 kts | 46° |
| 2026-04-30 08:28 | 23.60230 | -83.03589 | 36965 ft | 489 kts | 46° |
| 2026-04-30 08:28 | 23.64612 | -82.97919 | 36954 ft | 489 kts | 46° |
| 2026-04-30 08:29 | 23.68965 | -82.92282 | 36954 ft | 488 kts | 46° |
| 2026-04-30 08:29 | 23.73347 | -82.86601 | 36953 ft | 488 kts | 46° |
| 2026-04-30 08:30 | 23.77719 | -82.80925 | 36955 ft | 488 kts | 46° |
| 2026-04-30 08:30 | 23.82059 | -82.75287 | 36959 ft | 488 kts | 47° |
| 2026-04-30 08:31 | 23.86419 | -82.69615 | 36958 ft | 488 kts | 47° |
| 2026-04-30 08:31 | 23.90785 | -82.63928 | 36964 ft | 489 kts | 47° |
| 2026-04-30 08:32 | 23.95154 | -82.58231 | 36950 ft | 489 kts | 47° |
| 2026-04-30 08:32 | 23.99529 | -82.52519 | 36960 ft | 489 kts | 47° |
| 2026-04-30 08:33 | 24.03894 | -82.46791 | 36957 ft | 490 kts | 47° |
| 2026-04-30 08:33 | 24.08238 | -82.41055 | 36956 ft | 490 kts | 47° |
| 2026-04-30 08:34 | 24.12560 | -82.35340 | 36961 ft | 490 kts | 47° |
| 2026-04-30 08:34 | 24.16913 | -82.29580 | 36958 ft | 490 kts | 47° |
| 2026-04-30 08:35 | 24.21256 | -82.23831 | 36964 ft | 490 kts | 47° |
| 2026-04-30 08:35 | 24.25594 | -82.18079 | 36958 ft | 490 kts | 47° |
| 2026-04-30 08:36 | 24.29937 | -82.12316 | 36959 ft | 490 kts | 47° |
| 2026-04-30 08:36 | 24.34248 | -82.06587 | 36962 ft | 490 kts | 47° |
| 2026-04-30 08:37 | 24.38581 | -82.00823 | 36967 ft | 490 kts | 47° |
| 2026-04-30 08:37 | 24.42912 | -81.95055 | 36978 ft | 490 kts | 47° |
| 2026-04-30 08:38 | 24.47246 | -81.89275 | 36981 ft | 490 kts | 48° |
| 2026-04-30 08:38 | 24.51579 | -81.83491 | 36981 ft | 490 kts | 48° |
| 2026-04-30 08:39 | 24.55906 | -81.77706 | 36983 ft | 490 kts | 48° |
| 2026-04-30 08:39 | 24.60240 | -81.71906 | 36981 ft | 490 kts | 48° |
| 2026-04-30 08:40 | 24.64542 | -81.66142 | 36985 ft | 490 kts | 48° |
| 2026-04-30 08:40 | 24.68861 | -81.60347 | 36987 ft | 490 kts | 48° |
| 2026-04-30 08:41 | 24.73181 | -81.54544 | 36982 ft | 489 kts | 48° |
| 2026-04-30 08:41 | 24.77465 | -81.48783 | 36991 ft | 489 kts | 48° |
| 2026-04-30 08:42 | 24.81775 | -81.42981 | 36972 ft | 489 kts | 48° |
| 2026-04-30 08:42 | 24.86082 | -81.37174 | 36977 ft | 490 kts | 48° |
| 2026-04-30 08:43 | 24.90395 | -81.31352 | 36981 ft | 490 kts | 48° |
| 2026-04-30 08:43 | 24.94707 | -81.25526 | 36977 ft | 490 kts | 49° |
| 2026-04-30 08:44 | 24.99017 | -81.19695 | 36972 ft | 490 kts | 49° |
| 2026-04-30 08:44 | 25.03289 | -81.13907 | 36968 ft | 489 kts | 49° |
| 2026-04-30 08:45 | 25.07578 | -81.08089 | 36965 ft | 488 kts | 49° |
| 2026-04-30 08:45 | 25.11875 | -81.02255 | 36968 ft | 490 kts | 49° |
| 2026-04-30 08:46 | 25.16183 | -80.96397 | 36974 ft | 492 kts | 49° |
| 2026-04-30 08:46 | 25.20503 | -80.90517 | 36977 ft | 493 kts | 49° |
| 2026-04-30 08:47 | 25.24821 | -80.84630 | 36981 ft | 493 kts | 49° |
| 2026-04-30 08:47 | 25.29106 | -80.78782 | 36976 ft | 492 kts | 49° |
| 2026-04-30 08:48 | 25.33398 | -80.72916 | 36977 ft | 490 kts | 49° |
| 2026-04-30 08:48 | 25.37692 | -80.67042 | 36982 ft | 490 kts | 49° |
| 2026-04-30 08:49 | 25.41979 | -80.61169 | 36995 ft | 491 kts | 49° |
| 2026-04-30 08:49 | 25.46285 | -80.55264 | 36996 ft | 494 kts | 49° |
| 2026-04-30 08:50 | 25.50598 | -80.49340 | 37000 ft | 494 kts | 49° |
| 2026-04-30 08:50 | 25.54901 | -80.43421 | 36985 ft | 492 kts | 49° |
| 2026-04-30 08:51 | 25.59148 | -80.37572 | 36985 ft | 489 kts | 49° |
| 2026-04-30 08:51 | 25.63394 | -80.31718 | 36990 ft | 487 kts | 49° |
| 2026-04-30 08:52 | 25.67636 | -80.25862 | 36995 ft | 487 kts | 49° |
| 2026-04-30 08:52 | 25.71890 | -80.19984 | 36995 ft | 489 kts | 49° |
| 2026-04-30 08:53 | 25.76268 | -80.14203 | 37003 ft | 489 kts | 43° |
| 2026-04-30 08:53 | 25.81217 | -80.09064 | 36987 ft | 487 kts | 40° |
| 2026-04-30 08:54 | 25.86208 | -80.04000 | 36980 ft | 485 kts | 40° |
| 2026-04-30 08:54 | 25.91130 | -79.98956 | 36977 ft | 483 kts | 41° |
| 2026-04-30 08:55 | 25.96058 | -79.93865 | 36980 ft | 483 kts | 41° |
| 2026-04-30 08:55 | 26.00982 | -79.88759 | 36974 ft | 484 kts | 41° |
| 2026-04-30 08:56 | 26.05916 | -79.83636 | 36979 ft | 486 kts | 41° |
| 2026-04-30 08:56 | 26.10868 | -79.78491 | 36996 ft | 487 kts | 41° |
| 2026-04-30 08:57 | 26.14978 | -79.74216 | 36976 ft | 486 kts | 41° |
| 2026-04-30 08:57 | 26.20695 | -79.68262 | 36972 ft | 483 kts | 41° |
| 2026-04-30 08:58 | 26.24806 | -79.63976 | 36977 ft | 483 kts | 41° |
| 2026-04-30 08:58 | 26.29690 | -79.58879 | 36982 ft | 484 kts | 41° |
| 2026-04-30 08:59 | 26.34614 | -79.53735 | 36986 ft | 486 kts | 41° |
| 2026-04-30 08:59 | 26.39564 | -79.48556 | 36983 ft | 488 kts | 41° |
| 2026-04-30 09:00 | 26.44522 | -79.43363 | 36972 ft | 490 kts | 41° |
| 2026-04-30 09:00 | 26.49462 | -79.38179 | 36971 ft | 487 kts | 40° |
| 2026-04-30 09:01 | 26.54421 | -79.32972 | 36979 ft | 491 kts | 40° |
| 2026-04-30 09:01 | 26.59419 | -79.27718 | 36967 ft | 494 kts | 40° |
| 2026-04-30 09:02 | 26.66916 | -79.19823 | 36964 ft | 496 kts | 40° |
| 2026-04-30 09:02 | 26.71938 | -79.14524 | 36959 ft | 496 kts | 40° |
| 2026-04-30 09:03 | 26.76950 | -79.09229 | 36965 ft | 494 kts | 40° |
| 2026-04-30 09:03 | 26.81948 | -79.03944 | 36967 ft | 493 kts | 39° |
| 2026-04-30 09:04 | 26.86920 | -78.98679 | 36955 ft | 491 kts | 39° |
| 2026-04-30 09:04 | 26.91872 | -78.93429 | 36956 ft | 488 kts | 39° |
| 2026-04-30 09:05 | 26.96768 | -78.88232 | 36954 ft | 486 kts | 39° |
| 2026-04-30 09:05 | 27.01673 | -78.83018 | 36955 ft | 485 kts | 39° |
| 2026-04-30 09:06 | 27.06576 | -78.77801 | 36961 ft | 486 kts | 39° |
| 2026-04-30 09:06 | 27.11494 | -78.72563 | 36965 ft | 488 kts | 39° |
| 2026-04-30 09:07 | 27.16428 | -78.67300 | 36966 ft | 490 kts | 39° |
| 2026-04-30 09:07 | 27.21370 | -78.62020 | 36964 ft | 491 kts | 39° |
| 2026-04-30 09:08 | 27.26317 | -78.56728 | 36957 ft | 491 kts | 39° |
| 2026-04-30 09:08 | 27.31230 | -78.51465 | 36958 ft | 490 kts | 39° |
| 2026-04-30 09:09 | 27.36155 | -78.46183 | 36952 ft | 489 kts | 39° |
| 2026-04-30 09:09 | 27.41073 | -78.40901 | 36952 ft | 488 kts | 39° |
| 2026-04-30 09:10 | 27.45979 | -78.35626 | 36954 ft | 487 kts | 39° |
| 2026-04-30 09:10 | 27.50886 | -78.30343 | 36956 ft | 487 kts | 39° |
| 2026-04-30 09:11 | 27.55782 | -78.25066 | 36956 ft | 486 kts | 39° |
| 2026-04-30 09:11 | 27.60639 | -78.19823 | 36961 ft | 488 kts | 38° |
| 2026-04-30 09:12 | 27.65557 | -78.14510 | 36954 ft | 489 kts | 38° |
| 2026-04-30 09:12 | 27.70475 | -78.09187 | 36956 ft | 491 kts | 38° |
| 2026-04-30 09:13 | 27.75414 | -78.03835 | 36957 ft | 492 kts | 38° |
| 2026-04-30 09:13 | 27.80327 | -77.98503 | 36954 ft | 493 kts | 38° |
| 2026-04-30 09:14 | 27.85264 | -77.93138 | 36970 ft | 494 kts | 38° |
| 2026-04-30 09:14 | 27.90228 | -77.87737 | 36948 ft | 494 kts | 38° |
| 2026-04-30 09:15 | 27.95180 | -77.82341 | 36956 ft | 493 kts | 38° |
| 2026-04-30 09:15 | 28.00120 | -77.76951 | 36950 ft | 493 kts | 38° |
| 2026-04-30 09:16 | 28.05043 | -77.71572 | 36947 ft | 492 kts | 38° |
| 2026-04-30 09:16 | 28.09973 | -77.66177 | 36954 ft | 492 kts | 39° |
| 2026-04-30 09:17 | 28.14390 | -77.60253 | 36942 ft | 502 kts | 51° |
| 2026-04-30 09:17 | 28.18044 | -77.53477 | 36957 ft | 504 kts | 53° |
| 2026-04-30 09:18 | 28.21718 | -77.46699 | 36946 ft | 503 kts | 52° |
| 2026-04-30 09:18 | 28.25430 | -77.39969 | 36947 ft | 503 kts | 52° |
| 2026-04-30 09:19 | 28.29112 | -77.33278 | 36951 ft | 503 kts | 52° |
| 2026-04-30 09:19 | 28.32815 | -77.26527 | 36950 ft | 503 kts | 52° |
| 2026-04-30 09:20 | 28.36510 | -77.19776 | 36971 ft | 503 kts | 52° |
| 2026-04-30 09:20 | 28.40200 | -77.13024 | 36954 ft | 503 kts | 52° |
| 2026-04-30 09:21 | 28.43891 | -77.06260 | 36949 ft | 503 kts | 52° |
| 2026-04-30 09:21 | 28.47549 | -76.99547 | 36950 ft | 502 kts | 52° |
| 2026-04-30 09:22 | 28.51225 | -76.92782 | 36950 ft | 502 kts | 53° |
| 2026-04-30 09:22 | 28.54892 | -76.86017 | 36952 ft | 502 kts | 53° |
| 2026-04-30 09:23 | 28.58548 | -76.79262 | 36953 ft | 501 kts | 53° |
| 2026-04-30 09:23 | 28.62199 | -76.72505 | 36952 ft | 501 kts | 52° |
| 2026-04-30 09:24 | 28.65852 | -76.65734 | 36944 ft | 501 kts | 52° |
| 2026-04-30 09:24 | 28.69499 | -76.58965 | 36949 ft | 501 kts | 52° |
| 2026-04-30 09:25 | 28.73482 | -76.52529 | 36950 ft | 493 kts | 44° |
| 2026-04-30 09:25 | 28.77905 | -76.46615 | 36959 ft | 492 kts | 43° |
| 2026-04-30 09:26 | 28.82359 | -76.40672 | 36949 ft | 492 kts | 43° |
| 2026-04-30 09:26 | 28.86781 | -76.34706 | 36962 ft | 493 kts | 43° |
| 2026-04-30 09:27 | 28.91201 | -76.28703 | 36948 ft | 494 kts | 43° |
| 2026-04-30 09:27 | 28.95615 | -76.22691 | 36948 ft | 494 kts | 43° |
| 2026-04-30 09:28 | 29.00033 | -76.16668 | 36946 ft | 495 kts | 43° |
| 2026-04-30 09:28 | 29.04454 | -76.10631 | 36950 ft | 494 kts | 44° |
| 2026-04-30 09:29 | 29.08872 | -76.04591 | 36946 ft | 494 kts | 44° |
| 2026-04-30 09:29 | 29.13250 | -75.98597 | 36947 ft | 494 kts | 43° |
| 2026-04-30 09:30 | 29.17650 | -75.92566 | 36950 ft | 494 kts | 43° |
| 2026-04-30 09:30 | 29.22059 | -75.86513 | 36945 ft | 494 kts | 43° |
| 2026-04-30 09:31 | 29.26458 | -75.80465 | 36945 ft | 494 kts | 43° |
| 2026-04-30 09:31 | 29.30857 | -75.74406 | 36948 ft | 494 kts | 44° |
| 2026-04-30 09:32 | 29.35246 | -75.68353 | 36957 ft | 494 kts | 43° |
| 2026-04-30 09:32 | 29.39644 | -75.62279 | 36949 ft | 495 kts | 43° |
| 2026-04-30 09:33 | 29.44018 | -75.56230 | 36942 ft | 495 kts | 43° |
| 2026-04-30 09:33 | 29.48412 | -75.50143 | 36942 ft | 496 kts | 44° |
| 2026-04-30 09:34 | 29.52816 | -75.44033 | 36945 ft | 496 kts | 44° |
| 2026-04-30 09:34 | 29.57216 | -75.37918 | 36948 ft | 496 kts | 44° |
| 2026-04-30 09:35 | 29.61617 | -75.31794 | 36950 ft | 497 kts | 44° |
| 2026-04-30 09:35 | 29.66017 | -75.25663 | 36948 ft | 498 kts | 44° |
| 2026-04-30 09:36 | 29.70400 | -75.19546 | 36940 ft | 498 kts | 44° |
| 2026-04-30 09:36 | 29.74810 | -75.13380 | 36948 ft | 498 kts | 44° |
| 2026-04-30 09:37 | 29.79215 | -75.07213 | 36941 ft | 499 kts | 44° |
| 2026-04-30 09:37 | 29.83617 | -75.01040 | 36942 ft | 498 kts | 44° |
| 2026-04-30 09:38 | 29.88003 | -74.94879 | 36940 ft | 497 kts | 44° |
| 2026-04-30 09:38 | 29.92384 | -74.88717 | 36935 ft | 497 kts | 44° |
| 2026-04-30 09:39 | 29.96760 | -74.82553 | 36940 ft | 496 kts | 44° |
| 2026-04-30 09:39 | 30.01126 | -74.76393 | 36945 ft | 496 kts | 44° |
| 2026-04-30 09:40 | 30.05493 | -74.70224 | 36959 ft | 495 kts | 44° |
| 2026-04-30 09:40 | 30.09823 | -74.64097 | 36938 ft | 496 kts | 44° |
| 2026-04-30 09:41 | 30.14194 | -74.57903 | 36936 ft | 497 kts | 44° |
| 2026-04-30 09:41 | 30.18565 | -74.51697 | 36935 ft | 498 kts | 44° |
| 2026-04-30 09:42 | 30.22934 | -74.45486 | 36936 ft | 499 kts | 44° |
| 2026-04-30 09:42 | 30.27323 | -74.39236 | 36948 ft | 499 kts | 44° |
| 2026-04-30 09:43 | 30.31677 | -74.33025 | 36956 ft | 500 kts | 45° |
| 2026-04-30 09:43 | 30.36063 | -74.26761 | 36945 ft | 501 kts | 45° |
| 2026-04-30 09:44 | 30.40457 | -74.20473 | 36944 ft | 501 kts | 45° |
| 2026-04-30 09:44 | 30.44846 | -74.14183 | 36941 ft | 501 kts | 45° |
| 2026-04-30 09:45 | 30.49227 | -74.07894 | 36942 ft | 502 kts | 45° |
| 2026-04-30 09:45 | 30.53578 | -74.01638 | 36962 ft | 502 kts | 44° |
| 2026-04-30 09:46 | 30.57230 | -73.96382 | 36942 ft | 502 kts | 45° |
| 2026-04-30 09:46 | 30.61608 | -73.90067 | 36942 ft | 502 kts | 45° |
| 2026-04-30 09:47 | 30.66713 | -73.82689 | 36942 ft | 502 kts | 45° |
| 2026-04-30 09:47 | 30.70350 | -73.77422 | 36942 ft | 502 kts | 45° |
| 2026-04-30 09:48 | 30.74715 | -73.71092 | 36945 ft | 502 kts | 45° |
| 2026-04-30 09:48 | 30.79065 | -73.64773 | 36947 ft | 502 kts | 45° |
| 2026-04-30 09:49 | 30.83419 | -73.58438 | 36942 ft | 502 kts | 45° |
| 2026-04-30 09:49 | 30.87781 | -73.52081 | 36940 ft | 502 kts | 45° |
| 2026-04-30 09:50 | 30.92134 | -73.45727 | 36940 ft | 501 kts | 45° |
| 2026-04-30 09:50 | 30.96460 | -73.39403 | 36939 ft | 501 kts | 45° |
| 2026-04-30 09:51 | 31.00804 | -73.33042 | 36947 ft | 502 kts | 45° |
| 2026-04-30 09:51 | 31.05150 | -73.26668 | 36942 ft | 502 kts | 45° |
| 2026-04-30 09:52 | 31.09490 | -73.20293 | 36937 ft | 502 kts | 45° |
| 2026-04-30 09:52 | 31.13824 | -73.13915 | 36937 ft | 502 kts | 45° |
| 2026-04-30 09:53 | 31.18161 | -73.07522 | 36940 ft | 502 kts | 45° |
| 2026-04-30 09:53 | 31.22497 | -73.01120 | 36951 ft | 502 kts | 45° |
| 2026-04-30 09:54 | 31.26800 | -72.94758 | 36939 ft | 503 kts | 45° |
| 2026-04-30 09:54 | 31.31134 | -72.88339 | 36937 ft | 503 kts | 46° |
| 2026-04-30 09:55 | 31.35469 | -72.81907 | 36938 ft | 503 kts | 46° |
| 2026-04-30 09:55 | 31.39804 | -72.75464 | 36938 ft | 504 kts | 46° |
| 2026-04-30 09:56 | 31.44144 | -72.69002 | 36943 ft | 504 kts | 45° |
| 2026-04-30 09:56 | 31.48481 | -72.62536 | 36935 ft | 505 kts | 46° |
| 2026-04-30 09:57 | 31.52823 | -72.56051 | 36939 ft | 505 kts | 46° |
| 2026-04-30 09:57 | 31.57164 | -72.49556 | 36936 ft | 506 kts | 46° |
| 2026-04-30 09:58 | 31.61500 | -72.43056 | 36941 ft | 505 kts | 46° |
| 2026-04-30 09:58 | 31.65797 | -72.36604 | 36964 ft | 505 kts | 46° |
| 2026-04-30 09:59 | 31.74452 | -72.23578 | 36939 ft | 504 kts | 46° |
| 2026-04-30 10:00 | 31.80909 | -72.13830 | 36936 ft | 502 kts | 46° |
| 2026-04-30 10:01 | 31.87313 | -72.04137 | 36976 ft | 501 kts | 45° |
| 2026-04-30 10:02 | 31.93721 | -71.94415 | 36936 ft | 500 kts | 45° |
| 2026-04-30 10:02 | 31.97975 | -71.87945 | 36923 ft | 499 kts | 45° |
| 2026-04-30 10:03 | 32.02221 | -71.81479 | 36935 ft | 498 kts | 45° |
| 2026-04-30 10:03 | 32.06458 | -71.75017 | 36935 ft | 499 kts | 45° |
| 2026-04-30 10:04 | 32.10701 | -71.68537 | 36938 ft | 499 kts | 45° |
| 2026-04-30 10:04 | 32.14952 | -71.62034 | 36936 ft | 500 kts | 45° |
| 2026-04-30 10:05 | 32.19196 | -71.55528 | 36931 ft | 501 kts | 46° |
| 2026-04-30 10:05 | 32.23431 | -71.49023 | 36933 ft | 502 kts | 46° |
| 2026-04-30 10:06 | 32.27678 | -71.42489 | 36938 ft | 502 kts | 46° |
| 2026-04-30 10:06 | 32.31937 | -71.35924 | 36938 ft | 503 kts | 45° |
| 2026-04-30 10:07 | 32.36191 | -71.29357 | 36933 ft | 502 kts | 45° |
| 2026-04-30 10:07 | 32.40425 | -71.22808 | 36928 ft | 501 kts | 45° |
| 2026-04-30 10:08 | 32.44656 | -71.16252 | 36930 ft | 500 kts | 45° |
| 2026-04-30 10:08 | 32.48868 | -71.09717 | 36930 ft | 499 kts | 45° |
| 2026-04-30 10:09 | 32.53047 | -71.03222 | 36938 ft | 499 kts | 45° |
| 2026-04-30 10:09 | 32.57255 | -70.96669 | 36916 ft | 499 kts | 45° |
| 2026-04-30 10:10 | 32.61448 | -70.90129 | 36932 ft | 499 kts | 45° |
| 2026-04-30 10:10 | 32.65652 | -70.83560 | 36929 ft | 499 kts | 45° |
| 2026-04-30 10:11 | 32.69851 | -70.76987 | 36928 ft | 499 kts | 45° |
| 2026-04-30 10:11 | 32.74054 | -70.70397 | 36934 ft | 501 kts | 45° |
| 2026-04-30 10:12 | 32.78256 | -70.63795 | 36929 ft | 502 kts | 45° |
| 2026-04-30 10:12 | 32.82441 | -70.57209 | 36926 ft | 502 kts | 45° |
| 2026-04-30 10:13 | 32.86646 | -70.50581 | 36920 ft | 503 kts | 45° |
| 2026-04-30 10:13 | 32.90863 | -70.43919 | 36949 ft | 504 kts | 45° |
| 2026-04-30 10:14 | 32.95081 | -70.37245 | 36932 ft | 505 kts | 45° |
| 2026-04-30 10:14 | 33.01416 | -70.27199 | 36923 ft | 505 kts | 45° |
| 2026-04-30 10:15 | 33.05626 | -70.20508 | 36924 ft | 505 kts | 45° |
| 2026-04-30 10:15 | 33.09823 | -70.13825 | 36923 ft | 505 kts | 45° |
| 2026-04-30 10:16 | 33.14033 | -70.07108 | 36928 ft | 506 kts | 45° |
| 2026-04-30 10:17 | 33.20348 | -69.97011 | 36922 ft | 506 kts | 45° |
| 2026-04-30 10:17 | 33.26653 | -69.86902 | 36925 ft | 505 kts | 45° |
| 2026-04-30 10:18 | 33.30848 | -69.80163 | 36964 ft | 505 kts | 45° |
| 2026-04-30 10:19 | 33.37142 | -69.70032 | 36925 ft | 506 kts | 45° |
| 2026-04-30 10:19 | 33.41313 | -69.63301 | 36927 ft | 507 kts | 46° |
| 2026-04-30 10:20 | 33.45532 | -69.56480 | 36923 ft | 508 kts | 46° |
| 2026-04-30 10:20 | 33.51830 | -69.46271 | 36933 ft | 508 kts | 45° |
| 2026-04-30 10:21 | 33.56033 | -69.39442 | 36927 ft | 509 kts | 45° |
| 2026-04-30 10:21 | 33.60200 | -69.32660 | 36925 ft | 508 kts | 45° |
| 2026-04-30 10:22 | 33.64395 | -69.25819 | 36929 ft | 508 kts | 45° |
| 2026-04-30 10:22 | 33.68575 | -69.18990 | 36912 ft | 508 kts | 46° |
| 2026-04-30 10:23 | 33.72765 | -69.12132 | 36935 ft | 508 kts | 45° |
| 2026-04-30 10:23 | 33.76940 | -69.05285 | 36926 ft | 508 kts | 45° |
| 2026-04-30 10:24 | 33.81080 | -68.98485 | 36926 ft | 507 kts | 45° |
| 2026-04-30 10:24 | 33.85246 | -68.91626 | 36925 ft | 507 kts | 45° |
| 2026-04-30 10:25 | 33.89405 | -68.84769 | 36939 ft | 507 kts | 45° |
| 2026-04-30 10:25 | 33.93558 | -68.77908 | 36928 ft | 507 kts | 45° |
| 2026-04-30 10:26 | 33.97721 | -68.71017 | 36927 ft | 508 kts | 45° |
| 2026-04-30 10:26 | 34.01876 | -68.64126 | 36926 ft | 508 kts | 45° |
| 2026-04-30 10:27 | 34.06027 | -68.57228 | 36930 ft | 509 kts | 45° |
| 2026-04-30 10:27 | 34.10157 | -68.50352 | 36936 ft | 509 kts | 45° |
| 2026-04-30 10:28 | 34.14317 | -68.43413 | 36926 ft | 509 kts | 45° |
| 2026-04-30 10:28 | 34.18470 | -68.36472 | 36926 ft | 509 kts | 45° |
| 2026-04-30 10:29 | 34.22621 | -68.29520 | 36928 ft | 509 kts | 45° |
| 2026-04-30 10:29 | 34.26762 | -68.22573 | 36938 ft | 509 kts | 45° |
| 2026-04-30 10:30 | 34.30876 | -68.15659 | 36929 ft | 509 kts | 46° |
| 2026-04-30 10:30 | 34.35008 | -68.08699 | 36925 ft | 509 kts | 46° |
| 2026-04-30 10:31 | 34.39129 | -68.01743 | 36925 ft | 508 kts | 46° |
| 2026-04-30 10:31 | 34.43249 | -67.94777 | 36920 ft | 508 kts | 46° |
| 2026-04-30 10:32 | 34.47373 | -67.87794 | 36927 ft | 509 kts | 46° |
| 2026-04-30 10:32 | 34.51491 | -67.80805 | 36921 ft | 510 kts | 46° |
| 2026-04-30 10:33 | 34.55612 | -67.73797 | 36921 ft | 511 kts | 46° |
| 2026-04-30 10:33 | 34.59042 | -67.67953 | 36922 ft | 511 kts | 46° |
| 2026-04-30 10:34 | 34.63173 | -67.60902 | 36941 ft | 512 kts | 46° |
| 2026-04-30 10:34 | 34.67976 | -67.52687 | 36914 ft | 513 kts | 47° |
| 2026-04-30 10:35 | 34.71425 | -67.46776 | 36920 ft | 513 kts | 47° |
| 2026-04-30 10:35 | 34.75554 | -67.39685 | 36918 ft | 513 kts | 47° |
| 2026-04-30 10:36 | 34.79668 | -67.32606 | 36911 ft | 513 kts | 47° |
| 2026-04-30 10:36 | 34.83800 | -67.25485 | 36914 ft | 514 kts | 47° |
| 2026-04-30 10:37 | 34.87900 | -67.18402 | 36897 ft | 514 kts | 48° |
| 2026-04-30 10:37 | 34.92713 | -67.10070 | 36908 ft | 514 kts | 48° |
| 2026-04-30 10:38 | 34.96133 | -67.04137 | 36913 ft | 514 kts | 48° |
| 2026-04-30 10:38 | 35.00252 | -66.96981 | 36914 ft | 516 kts | 48° |
| 2026-04-30 10:39 | 35.04369 | -66.89812 | 36910 ft | 516 kts | 49° |
| 2026-04-30 10:39 | 35.08485 | -66.82630 | 36896 ft | 517 kts | 49° |
| 2026-04-30 10:40 | 35.12571 | -66.75483 | 36900 ft | 517 kts | 49° |
| 2026-04-30 10:40 | 35.16699 | -66.68251 | 36913 ft | 518 kts | 49° |
| 2026-04-30 10:41 | 35.20830 | -66.60999 | 36900 ft | 518 kts | 49° |
| 2026-04-30 10:41 | 35.24946 | -66.53757 | 36887 ft | 519 kts | 50° |
| 2026-04-30 10:42 | 35.29041 | -66.46535 | 36892 ft | 519 kts | 50° |
| 2026-04-30 10:42 | 35.33149 | -66.39279 | 36925 ft | 519 kts | 50° |
| 2026-04-30 10:43 | 35.37262 | -66.32001 | 36900 ft | 520 kts | 50° |
| 2026-04-30 10:43 | 35.41364 | -66.24722 | 36879 ft | 520 kts | 50° |
| 2026-04-30 10:44 | 35.45471 | -66.17419 | 36890 ft | 520 kts | 50° |
| 2026-04-30 10:44 | 35.49543 | -66.10163 | 36926 ft | 520 kts | 50° |
| 2026-04-30 10:45 | 35.53651 | -66.02828 | 36889 ft | 521 kts | 50° |
| 2026-04-30 10:45 | 35.57757 | -65.95479 | 36890 ft | 521 kts | 51° |
| 2026-04-30 10:46 | 35.61853 | -65.88135 | 36878 ft | 522 kts | 51° |
| 2026-04-30 10:46 | 35.65957 | -65.80759 | 36878 ft | 522 kts | 51° |
| 2026-04-30 10:47 | 35.70068 | -65.73356 | 36890 ft | 524 kts | 51° |
| 2026-04-30 10:47 | 35.74148 | -65.65994 | 36887 ft | 524 kts | 51° |
| 2026-04-30 10:48 | 35.78259 | -65.58558 | 36879 ft | 525 kts | 51° |
| 2026-04-30 10:48 | 35.82367 | -65.51113 | 36880 ft | 526 kts | 51° |
| 2026-04-30 10:49 | 35.86483 | -65.43636 | 36884 ft | 526 kts | 51° |
| 2026-04-30 10:49 | 35.90577 | -65.36183 | 36881 ft | 526 kts | 51° |
| 2026-04-30 10:50 | 35.94686 | -65.28686 | 36869 ft | 527 kts | 51° |
| 2026-04-30 10:50 | 35.98791 | -65.21182 | 36905 ft | 527 kts | 51° |
| 2026-04-30 10:51 | 36.02854 | -65.13727 | 36883 ft | 516 kts | 51° |
| 2026-04-30 10:51 | 36.06824 | -65.06435 | 36884 ft | 515 kts | 51° |
| 2026-04-30 10:52 | 36.10833 | -64.99066 | 36883 ft | 515 kts | 51° |
| 2026-04-30 10:52 | 36.14806 | -64.91746 | 36884 ft | 516 kts | 51° |
| 2026-04-30 10:53 | 36.18808 | -64.84351 | 36894 ft | 518 kts | 51° |
| 2026-04-30 10:53 | 36.22825 | -64.76912 | 36889 ft | 520 kts | 52° |
| 2026-04-30 10:54 | 36.26836 | -64.69466 | 36886 ft | 521 kts | 52° |
| 2026-04-30 10:54 | 36.30861 | -64.61979 | 36881 ft | 521 kts | 52° |
| 2026-04-30 10:55 | 36.34881 | -64.54484 | 36887 ft | 522 kts | 52° |
| 2026-04-30 10:55 | 36.38899 | -64.46976 | 36887 ft | 521 kts | 52° |
| 2026-04-30 10:56 | 36.42902 | -64.39480 | 36890 ft | 521 kts | 52° |
| 2026-04-30 10:56 | 36.46901 | -64.31978 | 36908 ft | 520 kts | 52° |
| 2026-04-30 10:57 | 36.50884 | -64.24488 | 36894 ft | 520 kts | 52° |
| 2026-04-30 10:57 | 36.54842 | -64.17027 | 36889 ft | 520 kts | 52° |
| 2026-04-30 10:58 | 36.58824 | -64.09504 | 36891 ft | 519 kts | 52° |
| 2026-04-30 10:58 | 36.62794 | -64.01988 | 36905 ft | 519 kts | 52° |
| 2026-04-30 10:59 | 36.66760 | -63.94465 | 36892 ft | 520 kts | 52° |
| 2026-04-30 10:59 | 36.70714 | -63.86946 | 36890 ft | 520 kts | 53° |
| 2026-04-30 11:00 | 36.74675 | -63.79397 | 36893 ft | 520 kts | 53° |
| 2026-04-30 11:00 | 36.78632 | -63.71838 | 36900 ft | 520 kts | 53° |
| 2026-04-30 11:01 | 36.82560 | -63.64318 | 36896 ft | 520 kts | 53° |
| 2026-04-30 11:01 | 36.86529 | -63.56703 | 36890 ft | 521 kts | 53° |
| 2026-04-30 11:02 | 36.90480 | -63.49105 | 36890 ft | 521 kts | 53° |
| 2026-04-30 11:02 | 36.94398 | -63.41554 | 36887 ft | 521 kts | 53° |
| 2026-04-30 11:03 | 36.98345 | -63.33931 | 36897 ft | 520 kts | 53° |
| 2026-04-30 11:04 | 37.04236 | -63.22516 | 36898 ft | 520 kts | 53° |
| 2026-04-30 11:04 | 37.08155 | -63.14903 | 36920 ft | 520 kts | 53° |
| 2026-04-30 11:05 | 37.12068 | -63.07284 | 36894 ft | 520 kts | 53° |
| 2026-04-30 11:05 | 37.15976 | -62.99658 | 36902 ft | 519 kts | 53° |
| 2026-04-30 11:06 | 37.19848 | -62.92084 | 36903 ft | 519 kts | 53° |
| 2026-04-30 11:06 | 37.23741 | -62.84451 | 36912 ft | 519 kts | 54° |
| 2026-04-30 11:07 | 37.27612 | -62.76845 | 36903 ft | 519 kts | 53° |
| 2026-04-30 11:07 | 37.31499 | -62.69188 | 36903 ft | 518 kts | 54° |
| 2026-04-30 11:08 | 37.35376 | -62.61536 | 36908 ft | 518 kts | 54° |
| 2026-04-30 11:08 | 37.39239 | -62.53893 | 36909 ft | 517 kts | 54° |
| 2026-04-30 11:09 | 37.43071 | -62.46293 | 36903 ft | 517 kts | 54° |
| 2026-04-30 11:09 | 37.46952 | -62.38578 | 36909 ft | 517 kts | 54° |
| 2026-04-30 11:10 | 37.50769 | -62.30975 | 36928 ft | 517 kts | 54° |
| 2026-04-30 11:10 | 37.54618 | -62.23289 | 36909 ft | 518 kts | 54° |
| 2026-04-30 11:11 | 37.58454 | -62.15608 | 36908 ft | 517 kts | 54° |
| 2026-04-30 11:11 | 37.62275 | -62.07942 | 36909 ft | 517 kts | 54° |
| 2026-04-30 11:12 | 37.66091 | -62.00270 | 36923 ft | 517 kts | 54° |
| 2026-04-30 11:12 | 37.69921 | -61.92549 | 36901 ft | 516 kts | 54° |
| 2026-04-30 11:13 | 37.73698 | -61.84918 | 36915 ft | 516 kts | 54° |
| 2026-04-30 11:13 | 37.77502 | -61.77214 | 36911 ft | 515 kts | 54° |
| 2026-04-30 11:14 | 37.81290 | -61.69527 | 36906 ft | 515 kts | 54° |
| 2026-04-30 11:14 | 37.85065 | -61.61846 | 36926 ft | 514 kts | 54° |
| 2026-04-30 11:15 | 37.88852 | -61.54122 | 36912 ft | 514 kts | 54° |
| 2026-04-30 11:15 | 37.92617 | -61.46425 | 36937 ft | 514 kts | 54° |
| 2026-04-30 11:16 | 37.96353 | -61.38772 | 36926 ft | 514 kts | 54° |
| 2026-04-30 11:16 | 38.00104 | -61.31066 | 36913 ft | 514 kts | 54° |
| 2026-04-30 11:17 | 38.03840 | -61.23374 | 36923 ft | 513 kts | 54° |
| 2026-04-30 11:17 | 38.07596 | -61.15626 | 36937 ft | 513 kts | 55° |
| 2026-04-30 11:18 | 38.11309 | -61.07945 | 36931 ft | 514 kts | 55° |
| 2026-04-30 11:18 | 38.16907 | -60.96329 | 36926 ft | 513 kts | 55° |
| 2026-04-30 11:19 | 38.20629 | -60.88584 | 36939 ft | 513 kts | 55° |
| 2026-04-30 11:19 | 38.24341 | -60.80843 | 36929 ft | 512 kts | 55° |
| 2026-04-30 11:20 | 38.28035 | -60.73117 | 36926 ft | 512 kts | 55° |
| 2026-04-30 11:20 | 38.31726 | -60.65381 | 36928 ft | 511 kts | 55° |
| 2026-04-30 11:21 | 38.35393 | -60.57677 | 36939 ft | 510 kts | 55° |
| 2026-04-30 11:21 | 38.39066 | -60.49941 | 36935 ft | 509 kts | 55° |
| 2026-04-30 11:22 | 38.42719 | -60.42230 | 36942 ft | 508 kts | 55° |
| 2026-04-30 11:22 | 38.46368 | -60.34508 | 36952 ft | 508 kts | 55° |
| 2026-04-30 11:23 | 38.50008 | -60.26787 | 36939 ft | 507 kts | 55° |
| 2026-04-30 11:24 | 38.55063 | -60.16731 | 36941 ft | 505 kts | 52° |
| 2026-04-30 11:24 | 38.59607 | -60.08027 | 36957 ft | 505 kts | 52° |
| 2026-04-30 11:25 | 38.62861 | -60.01731 | 37131 ft | 508 kts | 53° |
| 2026-04-30 11:25 | 38.64803 | -59.97939 | 37420 ft | 507 kts | 53° |
| 2026-04-30 11:26 | 38.72496 | -59.82812 | 37557 ft | 502 kts | 53° |
| 2026-04-30 11:26 | 38.76314 | -59.75278 | 37553 ft | 502 kts | 53° |
| 2026-04-30 11:27 | 38.80091 | -59.67818 | 37553 ft | 501 kts | 53° |
| 2026-04-30 11:27 | 38.83879 | -59.60318 | 37571 ft | 501 kts | 53° |
| 2026-04-30 11:28 | 38.89566 | -59.49021 | 37556 ft | 502 kts | 53° |
| 2026-04-30 11:29 | 38.93345 | -59.41493 | 37557 ft | 502 kts | 53° |
| 2026-04-30 11:29 | 38.99027 | -59.30141 | 37877 ft | 503 kts | 53° |
| 2026-04-30 11:30 | 39.02765 | -59.22646 | 38504 ft | 500 kts | 53° |
| 2026-04-30 11:30 | 39.04650 | -59.18860 | 38714 ft | 500 kts | 53° |
| 2026-04-30 11:30 | 39.06530 | -59.15083 | 38841 ft | 501 kts | 54° |
| 2026-04-30 11:31 | 39.08403 | -59.11316 | 38889 ft | 503 kts | 54° |
| 2026-04-30 11:31 | 39.12195 | -59.03674 | 38951 ft | 503 kts | 54° |
| 2026-04-30 11:32 | 39.15936 | -58.96109 | 38963 ft | 500 kts | 54° |
| 2026-04-30 11:32 | 39.19664 | -58.88557 | 38963 ft | 499 kts | 54° |
| 2026-04-30 11:33 | 39.25215 | -58.77282 | 38972 ft | 498 kts | 54° |
| 2026-04-30 11:33 | 39.28918 | -58.69739 | 38967 ft | 498 kts | 54° |
| 2026-04-30 11:34 | 39.32619 | -58.62181 | 38969 ft | 498 kts | 54° |
| 2026-04-30 11:34 | 39.36330 | -58.54584 | 38977 ft | 499 kts | 54° |
| 2026-04-30 11:35 | 39.40038 | -58.46975 | 38968 ft | 500 kts | 54° |
| 2026-04-30 11:35 | 39.43717 | -58.39407 | 38974 ft | 500 kts | 54° |
| 2026-04-30 11:36 | 39.47416 | -58.31778 | 38982 ft | 500 kts | 55° |
| 2026-04-30 11:36 | 39.51110 | -58.24144 | 38973 ft | 500 kts | 55° |
| 2026-04-30 11:37 | 39.54796 | -58.16504 | 38967 ft | 499 kts | 54° |
| 2026-04-30 11:37 | 39.58474 | -58.08865 | 38986 ft | 498 kts | 55° |
| 2026-04-30 11:38 | 39.62139 | -58.01234 | 38979 ft | 497 kts | 55° |
| 2026-04-30 11:38 | 39.65787 | -57.93620 | 38979 ft | 496 kts | 55° |
| 2026-04-30 11:39 | 39.69423 | -57.86014 | 38993 ft | 495 kts | 55° |
| 2026-04-30 11:39 | 39.73048 | -57.78411 | 38988 ft | 495 kts | 56° |
| 2026-04-30 11:40 | 39.76643 | -57.70855 | 38988 ft | 494 kts | 56° |
| 2026-04-30 11:40 | 39.80254 | -57.63245 | 38987 ft | 494 kts | 56° |
| 2026-04-30 11:41 | 39.83857 | -57.55634 | 38983 ft | 494 kts | 56° |
| 2026-04-30 11:41 | 39.87458 | -57.48009 | 38997 ft | 494 kts | 56° |
| 2026-04-30 11:42 | 39.91053 | -57.40377 | 39000 ft | 494 kts | 56° |
| 2026-04-30 11:42 | 39.94646 | -57.32733 | 39001 ft | 495 kts | 56° |
| 2026-04-30 11:43 | 39.98239 | -57.25067 | 38999 ft | 495 kts | 56° |
| 2026-04-30 11:43 | 40.01804 | -57.17444 | 38998 ft | 496 kts | 56° |
| 2026-04-30 11:44 | 40.05389 | -57.09758 | 38990 ft | 496 kts | 57° |
| 2026-04-30 11:44 | 40.08977 | -57.02047 | 38996 ft | 496 kts | 57° |
| 2026-04-30 11:45 | 40.12555 | -56.94339 | 39012 ft | 497 kts | 57° |
| 2026-04-30 11:45 | 40.16143 | -56.86591 | 38992 ft | 498 kts | 57° |
| 2026-04-30 11:46 | 40.19720 | -56.78846 | 39015 ft | 498 kts | 57° |
| 2026-04-30 11:46 | 40.23305 | -56.71065 | 39015 ft | 499 kts | 57° |
| 2026-04-30 11:47 | 40.26888 | -56.63269 | 39012 ft | 499 kts | 58° |
| 2026-04-30 11:47 | 40.30442 | -56.55515 | 39028 ft | 500 kts | 58° |
| 2026-04-30 11:48 | 40.34014 | -56.47704 | 39009 ft | 500 kts | 58° |
| 2026-04-30 11:48 | 40.37590 | -56.39863 | 39019 ft | 500 kts | 58° |
| 2026-04-30 11:49 | 40.41163 | -56.32009 | 39020 ft | 501 kts | 58° |
| 2026-04-30 11:49 | 40.44730 | -56.24148 | 39018 ft | 501 kts | 58° |
| 2026-04-30 11:50 | 40.48289 | -56.16284 | 39029 ft | 500 kts | 58° |
| 2026-04-30 11:50 | 40.51840 | -56.08419 | 39018 ft | 501 kts | 58° |
| 2026-04-30 11:51 | 40.55366 | -56.00589 | 39024 ft | 500 kts | 58° |
| 2026-04-30 11:51 | 40.58904 | -55.92713 | 39027 ft | 500 kts | 58° |
| 2026-04-30 11:52 | 40.62433 | -55.84835 | 39036 ft | 499 kts | 58° |
| 2026-04-30 11:52 | 40.65945 | -55.76975 | 39029 ft | 498 kts | 58° |
| 2026-04-30 11:53 | 40.69447 | -55.69117 | 39030 ft | 496 kts | 58° |
| 2026-04-30 11:53 | 40.72932 | -55.61277 | 39034 ft | 496 kts | 58° |
| 2026-04-30 11:54 | 40.76413 | -55.53427 | 39034 ft | 495 kts | 58° |
| 2026-04-30 11:54 | 40.79882 | -55.45584 | 39040 ft | 494 kts | 58° |
| 2026-04-30 11:55 | 40.83340 | -55.37745 | 39039 ft | 494 kts | 58° |
| 2026-04-30 11:55 | 40.86775 | -55.29940 | 39043 ft | 494 kts | 58° |
| 2026-04-30 11:56 | 40.90220 | -55.22089 | 39045 ft | 494 kts | 58° |
| 2026-04-30 11:56 | 40.93669 | -55.14210 | 39054 ft | 494 kts | 58° |
| 2026-04-30 11:57 | 40.97107 | -55.06336 | 39054 ft | 494 kts | 58° |
| 2026-04-30 11:57 | 41.00535 | -54.98464 | 39052 ft | 494 kts | 58° |
| 2026-04-30 11:58 | 41.03959 | -54.90579 | 39058 ft | 493 kts | 58° |
| 2026-04-30 11:58 | 41.07351 | -54.82751 | 39056 ft | 492 kts | 58° |
| 2026-04-30 11:59 | 41.10751 | -54.74881 | 39061 ft | 491 kts | 58° |
| 2026-04-30 11:59 | 41.14143 | -54.67012 | 39058 ft | 491 kts | 58° |
| 2026-04-30 12:00 | 41.17523 | -54.59149 | 39063 ft | 490 kts | 58° |
| 2026-04-30 12:00 | 41.20900 | -54.51271 | 39066 ft | 490 kts | 58° |
| 2026-04-30 12:01 | 41.24265 | -54.43401 | 39075 ft | 490 kts | 58° |
| 2026-04-30 12:01 | 41.27626 | -54.35521 | 39077 ft | 489 kts | 58° |
| 2026-04-30 12:02 | 41.30957 | -54.27688 | 39078 ft | 489 kts | 58° |
| 2026-04-30 12:02 | 41.34320 | -54.19761 | 39078 ft | 489 kts | 58° |
| 2026-04-30 12:03 | 41.39304 | -54.07974 | 39088 ft | 489 kts | 58° |
| 2026-04-30 12:04 | 41.42635 | -54.00070 | 39081 ft | 488 kts | 59° |
| 2026-04-30 12:04 | 41.45953 | -53.92176 | 39086 ft | 488 kts | 58° |
| 2026-04-30 12:05 | 41.49264 | -53.84277 | 39093 ft | 488 kts | 58° |
| 2026-04-30 12:05 | 41.52568 | -53.76375 | 39087 ft | 488 kts | 59° |
| 2026-04-30 12:06 | 41.55872 | -53.68452 | 39096 ft | 488 kts | 59° |
| 2026-04-30 12:06 | 41.59166 | -53.60532 | 39093 ft | 488 kts | 58° |
| 2026-04-30 12:07 | 41.62436 | -53.52647 | 39098 ft | 488 kts | 59° |
| 2026-04-30 12:07 | 41.65721 | -53.44706 | 39101 ft | 488 kts | 59° |
| 2026-04-30 12:08 | 41.68999 | -53.36760 | 39106 ft | 488 kts | 58° |
| 2026-04-30 12:08 | 41.72278 | -53.28791 | 39108 ft | 488 kts | 59° |
| 2026-04-30 12:09 | 41.75530 | -53.20866 | 39114 ft | 488 kts | 59° |
| 2026-04-30 12:09 | 41.78796 | -53.12885 | 39112 ft | 488 kts | 59° |
| 2026-04-30 12:10 | 41.82054 | -53.04901 | 39124 ft | 488 kts | 59° |
| 2026-04-30 12:10 | 41.85309 | -52.96905 | 39117 ft | 488 kts | 59° |
| 2026-04-30 12:11 | 41.88556 | -52.88905 | 39117 ft | 487 kts | 59° |
| 2026-04-30 12:11 | 41.91792 | -52.80910 | 39122 ft | 487 kts | 59° |
| 2026-04-30 12:12 | 41.95025 | -52.72902 | 39130 ft | 487 kts | 59° |
| 2026-04-30 12:12 | 41.98227 | -52.64948 | 39122 ft | 486 kts | 59° |
| 2026-04-30 12:13 | 42.01442 | -52.56941 | 39124 ft | 486 kts | 59° |
| 2026-04-30 12:13 | 42.04107 | -52.50288 | 39134 ft | 485 kts | 59° |
| 2026-04-30 12:14 | 42.07309 | -52.42272 | 39128 ft | 485 kts | 59° |
| 2026-04-30 12:14 | 42.10495 | -52.34274 | 39131 ft | 484 kts | 59° |
| 2026-04-30 12:15 | 42.13651 | -52.26331 | 39133 ft | 484 kts | 59° |
| 2026-04-30 12:15 | 42.16819 | -52.18336 | 39136 ft | 483 kts | 59° |
| 2026-04-30 12:16 | 42.19981 | -52.10333 | 39141 ft | 483 kts | 60° |
| 2026-04-30 12:16 | 42.23139 | -52.02319 | 39139 ft | 483 kts | 60° |
| 2026-04-30 12:17 | 42.27868 | -51.90276 | 39150 ft | 484 kts | 60° |
| 2026-04-30 12:17 | 42.31009 | -51.82249 | 39140 ft | 484 kts | 60° |
| 2026-04-30 12:18 | 42.34150 | -51.74201 | 39145 ft | 484 kts | 60° |
| 2026-04-30 12:18 | 42.37261 | -51.66204 | 39156 ft | 484 kts | 60° |
| 2026-04-30 12:19 | 42.40391 | -51.58138 | 39155 ft | 484 kts | 60° |
| 2026-04-30 12:19 | 42.43516 | -51.50064 | 39152 ft | 484 kts | 60° |
| 2026-04-30 12:20 | 42.46634 | -51.41983 | 39157 ft | 484 kts | 60° |
| 2026-04-30 12:20 | 42.49750 | -51.33885 | 39165 ft | 484 kts | 60° |
| 2026-04-30 12:21 | 42.52853 | -51.25800 | 39166 ft | 484 kts | 60° |
| 2026-04-30 12:21 | 42.55933 | -51.17747 | 39163 ft | 483 kts | 60° |
| 2026-04-30 12:22 | 42.59024 | -51.09648 | 39174 ft | 483 kts | 60° |
| 2026-04-30 12:22 | 42.62113 | -51.01529 | 39173 ft | 483 kts | 60° |
| 2026-04-30 12:23 | 42.65175 | -50.93458 | 39172 ft | 483 kts | 60° |
| 2026-04-30 12:23 | 42.68244 | -50.85345 | 39173 ft | 483 kts | 60° |
| 2026-04-30 12:24 | 42.71310 | -50.77217 | 39185 ft | 483 kts | 61° |
| 2026-04-30 12:24 | 42.74367 | -50.69090 | 39178 ft | 483 kts | 61° |
| 2026-04-30 12:25 | 42.77423 | -50.60942 | 39176 ft | 483 kts | 61° |
| 2026-04-30 12:25 | 42.80472 | -50.52790 | 39178 ft | 482 kts | 61° |
| 2026-04-30 12:26 | 42.83513 | -50.44636 | 39187 ft | 482 kts | 61° |
| 2026-04-30 12:26 | 42.86550 | -50.36467 | 39182 ft | 483 kts | 61° |
| 2026-04-30 12:27 | 42.89558 | -50.28351 | 39184 ft | 483 kts | 61° |
| 2026-04-30 12:27 | 42.92587 | -50.20160 | 39187 ft | 483 kts | 62° |
| 2026-04-30 12:28 | 42.95605 | -50.11970 | 39190 ft | 483 kts | 62° |
| 2026-04-30 12:28 | 42.98620 | -50.03769 | 39178 ft | 483 kts | 62° |
| 2026-04-30 12:29 | 43.01624 | -49.95545 | 39194 ft | 483 kts | 62° |
| 2026-04-30 12:29 | 43.04591 | -49.87296 | 39193 ft | 483 kts | 63° |
| 2026-04-30 12:30 | 43.07529 | -49.79083 | 39192 ft | 483 kts | 63° |
| 2026-04-30 12:30 | 43.10483 | -49.70816 | 39190 ft | 483 kts | 63° |
| 2026-04-30 12:31 | 43.13430 | -49.62549 | 39201 ft | 483 kts | 63° |
| 2026-04-30 12:31 | 43.16372 | -49.54276 | 39204 ft | 483 kts | 63° |
| 2026-04-30 12:32 | 43.19288 | -49.46053 | 39203 ft | 483 kts | 63° |
| 2026-04-30 12:32 | 43.22215 | -49.37772 | 39205 ft | 482 kts | 63° |
| 2026-04-30 12:33 | 43.25138 | -49.29477 | 39205 ft | 482 kts | 63° |
| 2026-04-30 12:33 | 43.28053 | -49.21181 | 39205 ft | 483 kts | 63° |
| 2026-04-30 12:34 | 43.30967 | -49.12864 | 39207 ft | 483 kts | 63° |
| 2026-04-30 12:34 | 43.33873 | -49.04542 | 39207 ft | 483 kts | 63° |
| 2026-04-30 12:35 | 43.36761 | -48.96247 | 39214 ft | 483 kts | 63° |
| 2026-04-30 12:35 | 43.39652 | -48.87916 | 39213 ft | 483 kts | 63° |
| 2026-04-30 12:36 | 43.42543 | -48.79564 | 39211 ft | 483 kts | 63° |
| 2026-04-30 12:36 | 43.45424 | -48.71214 | 39220 ft | 483 kts | 63° |
| 2026-04-30 12:37 | 43.48296 | -48.62861 | 39215 ft | 482 kts | 63° |
| 2026-04-30 12:37 | 43.51161 | -48.54506 | 39215 ft | 482 kts | 63° |
| 2026-04-30 12:38 | 43.54002 | -48.46196 | 39217 ft | 481 kts | 63° |
| 2026-04-30 12:38 | 43.56847 | -48.37847 | 39224 ft | 481 kts | 63° |
| 2026-04-30 12:39 | 43.59684 | -48.29496 | 39218 ft | 480 kts | 63° |
| 2026-04-30 12:39 | 43.62516 | -48.21136 | 39220 ft | 480 kts | 63° |
| 2026-04-30 12:40 | 43.65338 | -48.12778 | 39225 ft | 480 kts | 63° |
| 2026-04-30 12:40 | 43.68131 | -48.04482 | 39235 ft | 480 kts | 63° |
| 2026-04-30 12:41 | 43.70939 | -47.96112 | 39226 ft | 480 kts | 63° |
| 2026-04-30 12:41 | 43.73749 | -47.87715 | 39235 ft | 481 kts | 63° |
| 2026-04-30 12:42 | 43.76550 | -47.79315 | 39231 ft | 482 kts | 64° |
| 2026-04-30 12:42 | 43.79352 | -47.70885 | 39235 ft | 482 kts | 64° |
| 2026-04-30 12:43 | 43.82153 | -47.62434 | 39236 ft | 482 kts | 63° |
| 2026-04-30 12:43 | 43.84929 | -47.54031 | 39238 ft | 482 kts | 64° |
| 2026-04-30 12:44 | 43.87713 | -47.45576 | 39241 ft | 482 kts | 64° |
| 2026-04-30 12:44 | 43.90494 | -47.37103 | 39245 ft | 482 kts | 64° |
| 2026-04-30 12:45 | 43.93264 | -47.28638 | 39241 ft | 482 kts | 64° |
| 2026-04-30 12:45 | 43.96027 | -47.20167 | 39241 ft | 481 kts | 64° |
| 2026-04-30 12:46 | 43.98784 | -47.11686 | 39250 ft | 481 kts | 64° |
| 2026-04-30 12:46 | 44.01514 | -47.03264 | 39245 ft | 480 kts | 64° |
| 2026-04-30 12:47 | 44.04251 | -46.94790 | 39246 ft | 480 kts | 64° |
| 2026-04-30 12:47 | 44.06979 | -46.86318 | 39253 ft | 479 kts | 64° |
| 2026-04-30 12:48 | 44.09698 | -46.77847 | 39261 ft | 479 kts | 64° |
| 2026-04-30 12:48 | 44.12408 | -46.69379 | 39257 ft | 479 kts | 65° |
| 2026-04-30 12:49 | 44.15108 | -46.60912 | 39255 ft | 479 kts | 64° |
| 2026-04-30 12:49 | 44.17790 | -46.52475 | 39258 ft | 478 kts | 64° |
| 2026-04-30 12:50 | 44.20477 | -46.43994 | 39267 ft | 478 kts | 64° |
| 2026-04-30 12:50 | 44.23157 | -46.35509 | 39269 ft | 478 kts | 64° |
| 2026-04-30 12:51 | 44.25831 | -46.27016 | 39257 ft | 478 kts | 65° |
| 2026-04-30 12:51 | 44.28499 | -46.18513 | 39267 ft | 478 kts | 65° |
| 2026-04-30 12:52 | 44.31160 | -46.10007 | 39263 ft | 478 kts | 65° |
| 2026-04-30 12:52 | 44.33796 | -46.01550 | 39270 ft | 478 kts | 65° |
| 2026-04-30 12:53 | 44.36442 | -45.93034 | 39266 ft | 478 kts | 65° |
| 2026-04-30 12:53 | 44.39085 | -45.84500 | 39273 ft | 478 kts | 65° |
| 2026-04-30 12:54 | 44.41707 | -45.76006 | 39266 ft | 478 kts | 65° |
| 2026-04-30 12:54 | 44.44335 | -45.67462 | 39269 ft | 478 kts | 65° |
| 2026-04-30 12:55 | 44.46954 | -45.58921 | 39265 ft | 477 kts | 65° |
| 2026-04-30 12:55 | 44.49566 | -45.50374 | 39275 ft | 477 kts | 65° |
| 2026-04-30 12:56 | 44.52170 | -45.41826 | 39258 ft | 477 kts | 65° |
| 2026-04-30 12:56 | 44.54768 | -45.33267 | 39270 ft | 476 kts | 65° |
| 2026-04-30 12:57 | 44.57355 | -45.24718 | 39264 ft | 476 kts | 65° |
| 2026-04-30 12:57 | 44.59924 | -45.16199 | 39268 ft | 476 kts | 65° |
| 2026-04-30 12:58 | 44.62497 | -45.07636 | 39259 ft | 476 kts | 65° |
| 2026-04-30 12:58 | 44.65061 | -44.99075 | 39264 ft | 476 kts | 66° |
| 2026-04-30 12:59 | 44.67617 | -44.90512 | 39259 ft | 475 kts | 66° |
| 2026-04-30 12:59 | 44.70171 | -44.81930 | 39260 ft | 475 kts | 66° |
| 2026-04-30 13:00 | 44.72711 | -44.73360 | 39264 ft | 475 kts | 66° |
| 2026-04-30 13:00 | 44.75249 | -44.64769 | 39262 ft | 474 kts | 66° |
| 2026-04-30 13:01 | 44.77776 | -44.56190 | 39259 ft | 474 kts | 66° |
| 2026-04-30 13:01 | 44.80280 | -44.47659 | 39262 ft | 474 kts | 66° |
| 2026-04-30 13:02 | 44.82790 | -44.39076 | 39258 ft | 474 kts | 66° |
| 2026-04-30 13:02 | 44.85290 | -44.30500 | 39260 ft | 473 kts | 66° |
| 2026-04-30 13:03 | 44.87383 | -44.23295 | 39263 ft | 473 kts | 66° |
| 2026-04-30 13:03 | 44.89857 | -44.14753 | 39261 ft | 473 kts | 67° |
| 2026-04-30 13:04 | 44.92340 | -44.06149 | 39258 ft | 473 kts | 67° |
| 2026-04-30 13:04 | 44.94817 | -43.97540 | 39264 ft | 473 kts | 67° |
| 2026-04-30 13:05 | 44.97289 | -43.88915 | 39257 ft | 474 kts | 67° |
| 2026-04-30 13:06 | 45.00967 | -43.76028 | 39265 ft | 474 kts | 68° |
| 2026-04-30 13:06 | 45.03437 | -43.67333 | 39262 ft | 474 kts | 68° |
| 2026-04-30 13:07 | 45.05867 | -43.58750 | 39255 ft | 473 kts | 68° |
| 2026-04-30 13:07 | 45.08309 | -43.50094 | 39261 ft | 473 kts | 68° |
| 2026-04-30 13:08 | 45.10739 | -43.41454 | 39264 ft | 472 kts | 68° |
| 2026-04-30 13:08 | 45.13159 | -43.32816 | 39265 ft | 471 kts | 69° |
| 2026-04-30 13:09 | 45.15568 | -43.24185 | 39266 ft | 470 kts | 69° |
| 2026-04-30 13:09 | 45.17947 | -43.15634 | 39264 ft | 469 kts | 69° |
| 2026-04-30 13:10 | 45.20332 | -43.07029 | 39262 ft | 468 kts | 69° |
| 2026-04-30 13:10 | 45.22707 | -42.98432 | 39257 ft | 467 kts | 69° |
| 2026-04-30 13:11 | 45.25072 | -42.89839 | 39259 ft | 467 kts | 69° |
| 2026-04-30 13:11 | 45.27425 | -42.81261 | 39266 ft | 466 kts | 69° |
| 2026-04-30 13:12 | 45.29762 | -42.72710 | 39266 ft | 467 kts | 69° |
| 2026-04-30 13:12 | 45.32115 | -42.64069 | 39267 ft | 468 kts | 69° |
| 2026-04-30 13:13 | 45.35640 | -42.51066 | 39256 ft | 470 kts | 69° |
| 2026-04-30 13:14 | 45.39137 | -42.38098 | 39255 ft | 470 kts | 70° |
| 2026-04-30 13:14 | 45.42628 | -42.25076 | 39256 ft | 469 kts | 70° |
| 2026-04-30 13:15 | 45.46093 | -42.12085 | 39264 ft | 467 kts | 70° |
| 2026-04-30 13:16 | 45.48389 | -42.03436 | 39263 ft | 466 kts | 70° |
| 2026-04-30 13:16 | 45.50674 | -41.94798 | 39255 ft | 465 kts | 70° |
| 2026-04-30 13:17 | 45.54068 | -41.81908 | 39254 ft | 464 kts | 71° |
| 2026-04-30 13:18 | 45.57455 | -41.68971 | 39257 ft | 464 kts | 71° |
| 2026-04-30 13:18 | 45.60826 | -41.56026 | 39257 ft | 464 kts | 71° |
| 2026-04-30 13:19 | 45.63070 | -41.47371 | 39258 ft | 464 kts | 71° |
| 2026-04-30 13:19 | 45.65309 | -41.38701 | 39258 ft | 465 kts | 71° |
| 2026-04-30 13:20 | 45.67527 | -41.30080 | 39261 ft | 465 kts | 71° |
| 2026-04-30 13:20 | 45.69756 | -41.21386 | 39259 ft | 465 kts | 71° |
| 2026-04-30 13:21 | 45.71982 | -41.12667 | 39254 ft | 465 kts | 71° |
| 2026-04-30 13:22 | 45.75290 | -40.99652 | 39248 ft | 456 kts | 72° |
| 2026-04-30 13:22 | 45.78471 | -40.87070 | 39252 ft | 450 kts | 71° |
| 2026-04-30 13:23 | 45.81664 | -40.74362 | 39265 ft | 453 kts | 72° |
| 2026-04-30 13:24 | 45.85926 | -40.57294 | 39265 ft | 455 kts | 72° |
| 2026-04-30 13:25 | 45.90167 | -40.40186 | 39259 ft | 454 kts | 72° |
| 2026-04-30 13:26 | 45.95413 | -40.18838 | 39257 ft | 452 kts | 72° |
| 2026-04-30 13:28 | 46.00774 | -39.97676 | 39255 ft | 453 kts | 66° |
| 2026-04-30 13:28 | 46.05160 | -39.85616 | 39254 ft | 453 kts | 65° |
| 2026-04-30 13:29 | 46.10992 | -39.69542 | 39271 ft | 452 kts | 65° |
| 2026-04-30 13:31 | 46.18158 | -39.49494 | 39256 ft | 450 kts | 66° |
| 2026-04-30 13:32 | 46.25279 | -39.29414 | 39257 ft | 449 kts | 66° |
| 2026-04-30 13:33 | 46.30951 | -39.13317 | 39270 ft | 450 kts | 66° |
| 2026-04-30 13:34 | 46.35200 | -39.01191 | 39262 ft | 450 kts | 66° |
| 2026-04-30 13:35 | 46.40851 | -38.84983 | 39270 ft | 451 kts | 66° |
| 2026-04-30 13:36 | 46.46473 | -38.68753 | 39265 ft | 451 kts | 66° |
| 2026-04-30 13:36 | 46.50687 | -38.56526 | 39271 ft | 451 kts | 66° |
| 2026-04-30 13:37 | 46.54884 | -38.44291 | 39280 ft | 451 kts | 66° |
| 2026-04-30 13:38 | 46.59047 | -38.32096 | 39258 ft | 451 kts | 66° |
| 2026-04-30 13:39 | 46.64601 | -38.15742 | 39277 ft | 450 kts | 66° |
| 2026-04-30 13:40 | 46.68742 | -38.03477 | 39273 ft | 450 kts | 67° |
| 2026-04-30 13:40 | 46.71500 | -37.95279 | 39267 ft | 450 kts | 67° |
| 2026-04-30 13:41 | 46.74241 | -37.87105 | 39274 ft | 451 kts | 67° |
| 2026-04-30 13:41 | 46.76989 | -37.78884 | 39282 ft | 451 kts | 67° |
| 2026-04-30 13:42 | 46.79740 | -37.70625 | 39288 ft | 453 kts | 66° |
| 2026-04-30 13:42 | 46.83868 | -37.58188 | 39278 ft | 454 kts | 67° |
| 2026-04-30 13:43 | 46.86621 | -37.49860 | 39289 ft | 455 kts | 67° |
| 2026-04-30 13:43 | 46.89371 | -37.41514 | 39287 ft | 456 kts | 66° |
| 2026-04-30 13:44 | 46.92115 | -37.33161 | 39285 ft | 456 kts | 67° |
| 2026-04-30 13:44 | 46.94848 | -37.24813 | 39281 ft | 457 kts | 68° |
| 2026-04-30 13:45 | 46.98953 | -37.12222 | 39287 ft | 457 kts | 67° |
| 2026-04-30 13:46 | 47.01682 | -37.03818 | 39286 ft | 457 kts | 67° |
| 2026-04-30 13:46 | 47.04409 | -36.95391 | 39277 ft | 458 kts | 68° |
| 2026-04-30 13:47 | 47.07139 | -36.86930 | 39275 ft | 458 kts | 68° |
| 2026-04-30 13:47 | 47.09860 | -36.78465 | 39286 ft | 458 kts | 68° |
| 2026-04-30 13:48 | 47.12560 | -36.70039 | 39285 ft | 459 kts | 67° |
| 2026-04-30 13:48 | 47.15272 | -36.61548 | 39279 ft | 459 kts | 67° |
| 2026-04-30 13:49 | 47.17986 | -36.53024 | 39286 ft | 460 kts | 68° |
| 2026-04-30 13:49 | 47.20233 | -36.45944 | 39288 ft | 460 kts | 68° |
| 2026-04-30 13:50 | 47.22932 | -36.37411 | 39285 ft | 460 kts | 68° |
| 2026-04-30 13:50 | 47.26982 | -36.24557 | 39281 ft | 461 kts | 67° |
| 2026-04-30 13:51 | 47.29654 | -36.16038 | 39285 ft | 461 kts | 68° |
| 2026-04-30 13:51 | 47.32335 | -36.07462 | 39287 ft | 461 kts | 68° |
| 2026-04-30 13:52 | 47.35019 | -35.98852 | 39285 ft | 461 kts | 68° |
| 2026-04-30 13:52 | 47.37694 | -35.90236 | 39287 ft | 461 kts | 68° |
| 2026-04-30 13:53 | 47.40357 | -35.81631 | 39292 ft | 461 kts | 68° |
| 2026-04-30 13:53 | 47.43005 | -35.73045 | 39291 ft | 461 kts | 68° |
| 2026-04-30 13:54 | 47.45663 | -35.64396 | 39293 ft | 461 kts | 68° |
| 2026-04-30 13:54 | 47.48310 | -35.55754 | 39282 ft | 461 kts | 68° |
| 2026-04-30 13:55 | 47.50956 | -35.47084 | 39294 ft | 461 kts | 68° |
| 2026-04-30 13:55 | 47.53569 | -35.38494 | 39291 ft | 461 kts | 68° |
| 2026-04-30 13:56 | 47.56203 | -35.29805 | 39290 ft | 462 kts | 68° |
| 2026-04-30 13:56 | 47.58829 | -35.21111 | 39293 ft | 462 kts | 68° |
| 2026-04-30 13:57 | 47.61447 | -35.12411 | 39288 ft | 462 kts | 67° |
| 2026-04-30 13:57 | 47.64060 | -35.03699 | 39302 ft | 463 kts | 68° |
| 2026-04-30 13:58 | 47.67960 | -34.90640 | 39291 ft | 463 kts | 68° |
| 2026-04-30 13:59 | 47.70560 | -34.81894 | 39283 ft | 463 kts | 68° |
| 2026-04-30 13:59 | 47.73156 | -34.73128 | 39301 ft | 463 kts | 68° |
| 2026-04-30 14:00 | 47.75742 | -34.64371 | 39286 ft | 463 kts | 68° |
| 2026-04-30 14:00 | 47.79607 | -34.51216 | 39288 ft | 462 kts | 68° |
| 2026-04-30 14:01 | 47.82175 | -34.42440 | 39284 ft | 462 kts | 68° |
| 2026-04-30 14:01 | 47.84737 | -34.33651 | 39285 ft | 462 kts | 68° |
| 2026-04-30 14:02 | 47.87288 | -34.24867 | 39302 ft | 462 kts | 68° |
| 2026-04-30 14:02 | 47.89816 | -34.16132 | 39299 ft | 462 kts | 68° |
| 2026-04-30 14:03 | 47.92356 | -34.07324 | 39303 ft | 462 kts | 67° |
| 2026-04-30 14:03 | 47.94888 | -33.98510 | 39301 ft | 462 kts | 67° |
| 2026-04-30 14:04 | 47.97415 | -33.89685 | 39297 ft | 462 kts | 67° |
| 2026-04-30 14:04 | 47.99934 | -33.80853 | 39300 ft | 462 kts | 67° |
| 2026-04-30 14:05 | 48.02431 | -33.72066 | 39295 ft | 462 kts | 67° |
| 2026-04-30 14:05 | 48.04935 | -33.63221 | 39293 ft | 462 kts | 67° |
| 2026-04-30 14:06 | 48.08683 | -33.49924 | 39298 ft | 462 kts | 67° |
| 2026-04-30 14:07 | 48.12409 | -33.36629 | 39299 ft | 462 kts | 67° |
| 2026-04-30 14:08 | 48.16101 | -33.23382 | 39294 ft | 462 kts | 67° |
| 2026-04-30 14:08 | 48.19796 | -33.10053 | 39297 ft | 462 kts | 67° |
| 2026-04-30 14:09 | 48.22253 | -33.01144 | 39298 ft | 462 kts | 67° |
| 2026-04-30 14:10 | 48.25924 | -32.87775 | 39291 ft | 462 kts | 67° |
| 2026-04-30 14:10 | 48.28362 | -32.78857 | 39296 ft | 462 kts | 67° |
| 2026-04-30 14:11 | 48.30794 | -32.69920 | 39295 ft | 462 kts | 67° |
| 2026-04-30 14:11 | 48.33221 | -32.60974 | 39291 ft | 462 kts | 67° |
| 2026-04-30 14:12 | 48.35628 | -32.52065 | 39289 ft | 462 kts | 66° |
| 2026-04-30 14:12 | 48.38039 | -32.43107 | 39295 ft | 462 kts | 66° |
| 2026-04-30 14:13 | 48.40447 | -32.34125 | 39293 ft | 462 kts | 67° |
| 2026-04-30 14:13 | 48.42847 | -32.25140 | 39296 ft | 462 kts | 67° |
| 2026-04-30 14:14 | 48.45228 | -32.16191 | 39292 ft | 462 kts | 67° |
| 2026-04-30 14:14 | 48.47614 | -32.07188 | 39291 ft | 462 kts | 67° |
| 2026-04-30 14:15 | 48.49995 | -31.98171 | 39296 ft | 462 kts | 67° |
| 2026-04-30 14:15 | 48.52365 | -31.89156 | 39294 ft | 462 kts | 67° |
| 2026-04-30 14:16 | 48.54729 | -31.80132 | 39297 ft | 462 kts | 67° |
| 2026-04-30 14:16 | 48.57087 | -31.71096 | 39294 ft | 462 kts | 66° |
| 2026-04-30 14:17 | 48.59436 | -31.62059 | 39294 ft | 462 kts | 67° |
| 2026-04-30 14:17 | 48.61780 | -31.53005 | 39294 ft | 462 kts | 67° |
| 2026-04-30 14:18 | 48.64100 | -31.44007 | 39294 ft | 462 kts | 67° |
| 2026-04-30 14:18 | 48.67593 | -31.30393 | 39298 ft | 462 kts | 67° |
| 2026-04-30 14:19 | 48.71069 | -31.16766 | 39296 ft | 462 kts | 67° |
| 2026-04-30 14:20 | 48.73376 | -31.07673 | 39298 ft | 462 kts | 67° |
| 2026-04-30 14:20 | 48.76811 | -30.94070 | 39297 ft | 463 kts | 67° |
| 2026-04-30 14:21 | 48.79105 | -30.84941 | 39296 ft | 463 kts | 68° |
| 2026-04-30 14:22 | 48.82530 | -30.71237 | 39293 ft | 463 kts | 67° |
| 2026-04-30 14:22 | 48.85927 | -30.57563 | 39292 ft | 463 kts | 68° |
| 2026-04-30 14:23 | 48.90456 | -30.39203 | 39299 ft | 464 kts | 67° |
| 2026-04-30 14:24 | 48.93835 | -30.25403 | 39296 ft | 464 kts | 68° |
| 2026-04-30 14:25 | 48.98309 | -30.07006 | 39296 ft | 465 kts | 68° |
| 2026-04-30 14:26 | 49.01142 | -29.92815 | 39302 ft | 467 kts | 76° |
| 2026-04-30 14:27 | 49.03166 | -29.78355 | 39294 ft | 467 kts | 76° |
| 2026-04-30 14:27 | 49.04527 | -29.68664 | 39287 ft | 467 kts | 76° |
| 2026-04-30 14:28 | 49.05905 | -29.58952 | 39646 ft | 469 kts | 76° |
| 2026-04-30 14:28 | 49.06592 | -29.54106 | 39965 ft | 467 kts | 76° |
| 2026-04-30 14:28 | 49.07267 | -29.49333 | 40288 ft | 465 kts | 76° |
| 2026-04-30 14:28 | 49.07956 | -29.44448 | 40570 ft | 465 kts | 76° |
| 2026-04-30 14:29 | 49.09309 | -29.34799 | 41051 ft | 465 kts | 76° |
| 2026-04-30 14:29 | 49.10435 | -29.26729 | 41243 ft | 469 kts | 76° |
| 2026-04-30 14:31 | 49.13989 | -29.00920 | 41289 ft | 462 kts | 76° |
| 2026-04-30 14:31 | 49.15949 | -28.86499 | 41293 ft | 462 kts | 77° |
| 2026-04-30 14:32 | 49.17884 | -28.72116 | 41286 ft | 463 kts | 76° |
| 2026-04-30 14:33 | 49.19174 | -28.62451 | 41292 ft | 464 kts | 77° |
| 2026-04-30 14:33 | 49.21096 | -28.47918 | 41291 ft | 466 kts | 77° |
| 2026-04-30 14:34 | 49.22374 | -28.38168 | 41287 ft | 467 kts | 77° |
| 2026-04-30 14:34 | 49.23646 | -28.28403 | 41289 ft | 468 kts | 77° |
| 2026-04-30 14:35 | 49.25530 | -28.13800 | 41285 ft | 468 kts | 77° |
| 2026-04-30 14:36 | 49.26781 | -28.04028 | 41287 ft | 468 kts | 77° |
| 2026-04-30 14:36 | 49.28023 | -27.94253 | 41283 ft | 467 kts | 77° |
| 2026-04-30 14:37 | 49.29255 | -27.84485 | 41281 ft | 467 kts | 77° |
| 2026-04-30 14:37 | 49.30477 | -27.74718 | 41283 ft | 466 kts | 77° |
| 2026-04-30 14:38 | 49.31688 | -27.64986 | 41283 ft | 465 kts | 78° |
| 2026-04-30 14:38 | 49.32885 | -27.55287 | 41287 ft | 465 kts | 74° |
| 2026-04-30 14:39 | 49.34280 | -27.45627 | 41271 ft | 464 kts | 75° |
| 2026-04-30 14:39 | 49.35292 | -27.37559 | 41288 ft | 463 kts | 77° |
| 2026-04-30 14:40 | 49.36936 | -27.22943 | 41284 ft | 464 kts | 77° |
| 2026-04-30 14:40 | 49.38070 | -27.13167 | 41282 ft | 465 kts | 79° |
| 2026-04-30 14:41 | 49.39169 | -27.03364 | 41284 ft | 466 kts | 78° |
| 2026-04-30 14:41 | 49.40315 | -26.93532 | 41274 ft | 468 kts | 77° |
| 2026-04-30 14:42 | 49.41488 | -26.83777 | 41286 ft | 468 kts | 77° |
| 2026-04-30 14:42 | 49.42638 | -26.73933 | 41282 ft | 469 kts | 77° |
| 2026-04-30 14:43 | 49.43771 | -26.64067 | 41277 ft | 469 kts | 77° |
| 2026-04-30 14:43 | 49.44893 | -26.54199 | 41279 ft | 469 kts | 77° |
| 2026-04-30 14:44 | 49.46008 | -26.44324 | 41272 ft | 469 kts | 78° |
| 2026-04-30 14:44 | 49.47121 | -26.34451 | 41271 ft | 468 kts | 77° |
| 2026-04-30 14:45 | 49.48221 | -26.24587 | 41284 ft | 468 kts | 78° |
| 2026-04-30 14:45 | 49.49303 | -26.14718 | 41272 ft | 468 kts | 78° |
| 2026-04-30 14:46 | 49.50382 | -26.04835 | 41273 ft | 468 kts | 78° |
| 2026-04-30 14:46 | 49.51442 | -25.95037 | 41268 ft | 468 kts | 77° |
| 2026-04-30 14:47 | 49.52567 | -25.85172 | 41269 ft | 467 kts | 77° |
| 2026-04-30 14:47 | 49.53652 | -25.75294 | 41264 ft | 468 kts | 78° |
| 2026-04-30 14:48 | 49.54696 | -25.65382 | 41271 ft | 468 kts | 78° |
| 2026-04-30 14:48 | 49.55718 | -25.55531 | 41264 ft | 469 kts | 78° |
| 2026-04-30 14:49 | 49.56749 | -25.45597 | 41267 ft | 469 kts | 78° |
| 2026-04-30 14:49 | 49.57777 | -25.35643 | 41267 ft | 470 kts | 78° |
| 2026-04-30 14:50 | 49.59304 | -25.20698 | 41261 ft | 471 kts | 78° |
| 2026-04-30 14:51 | 49.60815 | -25.05725 | 41258 ft | 471 kts | 78° |
| 2026-04-30 14:52 | 49.62303 | -24.90782 | 41254 ft | 472 kts | 78° |
| 2026-04-30 14:52 | 49.63777 | -24.75768 | 41251 ft | 472 kts | 78° |
| 2026-04-30 14:53 | 49.65227 | -24.60816 | 41258 ft | 471 kts | 78° |
| 2026-04-30 14:54 | 49.67131 | -24.40778 | 41238 ft | 472 kts | 79° |
| 2026-04-30 14:55 | 49.68538 | -24.25732 | 41244 ft | 471 kts | 79° |
| 2026-04-30 14:56 | 49.70378 | -24.05728 | 41241 ft | 471 kts | 79° |
| 2026-04-30 14:57 | 49.71735 | -23.90682 | 41236 ft | 471 kts | 79° |
| 2026-04-30 14:58 | 49.73515 | -23.70604 | 41237 ft | 471 kts | 79° |
| 2026-04-30 14:58 | 49.74831 | -23.55557 | 41229 ft | 471 kts | 80° |
| 2026-04-30 15:00 | 49.76983 | -23.30511 | 41244 ft | 471 kts | 80° |
| 2026-04-30 15:01 | 49.78665 | -23.10407 | 41234 ft | 471 kts | 80° |
| 2026-04-30 15:01 | 49.79892 | -22.95321 | 41226 ft | 471 kts | 80° |
| 2026-04-30 15:02 | 49.80709 | -22.85271 | 41229 ft | 471 kts | 80° |
| 2026-04-30 15:03 | 49.82705 | -22.60181 | 41220 ft | 471 kts | 81° |
| 2026-04-30 15:04 | 49.84645 | -22.35004 | 41224 ft | 470 kts | 81° |
| 2026-04-30 15:06 | 49.86529 | -22.09837 | 41216 ft | 470 kts | 81° |
| 2026-04-30 15:07 | 49.87996 | -21.89692 | 41210 ft | 470 kts | 81° |
| 2026-04-30 15:08 | 49.89423 | -21.69546 | 41201 ft | 470 kts | 81° |
| 2026-04-30 15:09 | 49.91161 | -21.44399 | 41200 ft | 469 kts | 81° |
| 2026-04-30 15:10 | 49.92512 | -21.24253 | 41198 ft | 469 kts | 81° |
| 2026-04-30 15:11 | 49.94464 | -20.94025 | 41182 ft | 469 kts | 81° |
| 2026-04-30 15:13 | 49.96043 | -20.68831 | 41178 ft | 468 kts | 81° |
| 2026-04-30 15:14 | 49.98131 | -20.33616 | 41163 ft | 468 kts | 81° |
| 2026-04-30 15:17 | 50.00304 | -19.88275 | 41169 ft | 469 kts | 85° |
| 2026-04-30 15:19 | 50.01085 | -19.47743 | 41146 ft | 468 kts | 85° |